Observation data for Fort Lancaster on 07/05/2020      Previous  Date  Next       Current Mesonet Observations  Soil Data  Daily Summary Page  Observations in Plain Language
KLA1 050500Z 08004KT 31/14 A2992 RMK A01 T03080136  RH  035%=      5-min Rain = 0
KLA1 050501Z 09004KT 31/14 A2992 RMK A01 T03080135  RH  035%=      5-min Rain = 0
KLA1 050502Z 09004KT 31/14 A2992 RMK A01 T03080135  RH  035%=      5-min Rain = 0
KLA1 050503Z 09003KT 31/14 A2992 RMK A01 T03080135  RH  035%=      5-min Rain = 0
KLA1 050504Z 09004KT 31/14 A2992 RMK A01 T03080136  RH  035%=      5-min Rain = 0
KLA1 050505Z 09004KT 31/14 A2992 RMK A01 T03080136  RH  035%=      5-min Rain = 0
KLA1 050506Z 10004KT 31/14 A2992 RMK A01 T03080135  RH  035%=      5-min Rain = 0
KLA1 050507Z 10004KT 31/14 A2992 RMK A01 T03080135  RH  035%=      5-min Rain = 0
KLA1 050508Z 10003KT 31/14 A2992 RMK A01 T03080136  RH  035%=      5-min Rain = 0
KLA1 050509Z 10003KT 31/14 A2992 RMK A01 T03080136  RH  035%=      5-min Rain = 0
KLA1 050510Z 09003KT 31/14 A2992 RMK A01 T03070136  RH  035%=      5-min Rain = 0
KLA1 050511Z 10003KT 31/14 A2992 RMK A01 T03070136  RH  035%=      5-min Rain = 0
KLA1 050512Z 09003KT 31/14 A2992 RMK A01 T03070136  RH  035%=      5-min Rain = 0
KLA1 050513Z 10003KT 31/14 A2992 RMK A01 T03070136  RH  035%=      5-min Rain = 0
KLA1 050514Z 10003KT 31/14 A2992 RMK A01 T03060137  RH  035%=      5-min Rain = 0
KLA1 050515Z 09003KT 31/14 A2992 RMK A01 T03050136  RH  035%=      5-min Rain = 0
KLA1 050516Z 10004KT 31/14 A2992 RMK A01 T03050136  RH  035%=      5-min Rain = 0
KLA1 050517Z 10004KT 31/14 A2992 RMK A01 T03050136  RH  035%=      5-min Rain = 0
KLA1 050518Z 11004KT 31/14 A2992 RMK A01 T03050136  RH  036%=      5-min Rain = 0
KLA1 050519Z 11003KT 31/14 A2992 RMK A01 T03050135  RH  035%=      5-min Rain = 0
KLA1 050520Z 10003KT 31/14 A2992 RMK A01 T03050135  RH  035%=      5-min Rain = 0
KLA1 050521Z 11003KT 31/14 A2992 RMK A01 T03050136  RH  036%=      5-min Rain = 0
KLA1 050522Z 10003KT 30/14 A2992 RMK A01 T03040137  RH  036%=      5-min Rain = 0
KLA1 050523Z 09002KT 30/14 A2992 RMK A01 T03040138  RH  036%=      5-min Rain = 0
KLA1 050524Z 10002KT 30/14 A2992 RMK A01 T03030137  RH  036%=      5-min Rain = 0
KLA1 050525Z 10003KT 30/14 A2992 RMK A01 T03020136  RH  036%=      5-min Rain = 0
KLA1 050526Z 11002KT 30/14 A2992 RMK A01 T03010136  RH  036%=      5-min Rain = 0
KLA1 050527Z 12001KT 30/14 A2992 RMK A01 T03000137  RH  037%=      5-min Rain = 0
KLA1 050528Z 12002KT 30/14 A2992 RMK A01 T02990136  RH  037%=      5-min Rain = 0
KLA1 050529Z 12002KT 30/14 A2992 RMK A01 T02990135  RH  037%=      5-min Rain = 0
KLA1 050530Z 11002KT 30/13 A2992 RMK A01 T02980134  RH  037%=      5-min Rain = 0
KLA1 050531Z 10001KT 30/13 A2992 RMK A01 T02990133  RH  036%=      5-min Rain = 0
KLA1 050532Z 10002KT 30/13 A2992 RMK A01 T02990133  RH  036%=      5-min Rain = 0
KLA1 050533Z 10002KT 30/13 A2992 RMK A01 T03010133  RH  036%=      5-min Rain = 0
KLA1 050534Z 09002KT 30/13 A2992 RMK A01 T03010133  RH  036%=      5-min Rain = 0
KLA1 050535Z 10003KT 30/13 A2992 RMK A01 T03010133  RH  036%=      5-min Rain = 0
KLA1 050536Z 10002KT 30/13 A2992 RMK A01 T03020134  RH  036%=      5-min Rain = 0
KLA1 050537Z 10002KT 30/13 A2992 RMK A01 T03010134  RH  036%=      5-min Rain = 0
KLA1 050538Z 09002KT 30/13 A2992 RMK A01 T03010134  RH  036%=      5-min Rain = 0
KLA1 050539Z 09002KT 30/13 A2992 RMK A01 T03010134  RH  036%=      5-min Rain = 0
KLA1 050540Z 09003KT 30/13 A2992 RMK A01 T03010134  RH  036%=      5-min Rain = 0
KLA1 050541Z 09003KT 30/13 A2992 RMK A01 T03010134  RH  036%=      5-min Rain = 0
KLA1 050542Z 09004KT 30/13 A2992 RMK A01 T03010134  RH  036%=      5-min Rain = 0
KLA1 050543Z 10004KT 30/13 A2991 RMK A01 T03020134  RH  036%=      5-min Rain = 0
KLA1 050544Z 09004KT 30/13 A2991 RMK A01 T03010133  RH  036%=      5-min Rain = 0
KLA1 050545Z 09004KT 30/13 A2991 RMK A01 T03020133  RH  036%=      5-min Rain = 0
KLA1 050546Z 11004KT 30/13 A2991 RMK A01 T03010133  RH  036%=      5-min Rain = 0
KLA1 050547Z 11003KT 30/13 A2991 RMK A01 T03010132  RH  035%=      5-min Rain = 0
KLA1 050548Z 11003KT 30/13 A2991 RMK A01 T03020132  RH  035%=      5-min Rain = 0
KLA1 050549Z 11004KT 30/13 A2991 RMK A01 T03020131  RH  035%=      5-min Rain = 0
KLA1 050550Z 11005KT 30/13 A2991 RMK A01 T03030131  RH  035%=      5-min Rain = 0
KLA1 050551Z 11005KT 30/13 A2991 RMK A01 T03030130  RH  035%=      5-min Rain = 0
KLA1 050552Z 11004KT 30/13 A2991 RMK A01 T03040130  RH  034%=      5-min Rain = 0
KLA1 050553Z 11004KT 30/13 A2991 RMK A01 T03040130  RH  034%=      5-min Rain = 0
KLA1 050554Z 11005KT 31/13 A2991 RMK A01 T03050129  RH  034%=      5-min Rain = 0
KLA1 050555Z 11004KT 31/13 A2991 RMK A01 T03060129  RH  034%=      5-min Rain = 0
KLA1 050556Z 12004KT 31/13 A2991 RMK A01 T03070129  RH  034%=      5-min Rain = 0
KLA1 050557Z 12004KT 31/13 A2991 RMK A01 T03080129  RH  033%=      5-min Rain = 0
KLA1 050558Z 11005KT 31/13 A2991 RMK A01 T03070129  RH  033%=      5-min Rain = 0
KLA1 050559Z 11004KT 31/13 A2991 RMK A01 T03080129  RH  034%=      5-min Rain = 0
KLA1 050600Z 12004KT 31/13 A2991 RMK A01 T03070129  RH  034%=      5-min Rain = 0
KLA1 050601Z 11005KT 31/13 A2991 RMK A01 T03070129  RH  034%=      5-min Rain = 0
KLA1 050602Z 12005KT 31/13 A2991 RMK A01 T03070129  RH  034%=      5-min Rain = 0
KLA1 050603Z 12005KT 31/13 A2991 RMK A01 T03070129  RH  034%=      5-min Rain = 0
KLA1 050604Z 12005KT 31/13 A2991 RMK A01 T03070128  RH  033%=      5-min Rain = 0
KLA1 050605Z 12005KT 31/13 A299 RMK A01 T03070128  RH  033%=      5-min Rain = 0
KLA1 050606Z 12005KT 31/13 A299 RMK A01 T03080128  RH  033%=      5-min Rain = 0
KLA1 050607Z 11005KT 31/13 A299 RMK A01 T03080129  RH  033%=      5-min Rain = 0
KLA1 050608Z 12006KT 31/13 A299 RMK A01 T03080129  RH  033%=      5-min Rain = 0
KLA1 050609Z 11005KT 31/13 A299 RMK A01 T03070129  RH  033%=      5-min Rain = 0
KLA1 050610Z 12005KT 31/13 A299 RMK A01 T03080129  RH  034%=      5-min Rain = 0
KLA1 050611Z 12004KT 31/13 A2991 RMK A01 T03070129  RH  034%=      5-min Rain = 0
KLA1 050612Z 12004KT 31/13 A2991 RMK A01 T03070129  RH  034%=      5-min Rain = 0
KLA1 050613Z 11005KT 31/13 A2991 RMK A01 T03060129  RH  034%=      5-min Rain = 0
KLA1 050614Z 12005KT 31/13 A2991 RMK A01 T03070128  RH  034%=      5-min Rain = 0
KLA1 050615Z 12005KT 31/13 A2991 RMK A01 T03070128  RH  034%=      5-min Rain = 0
KLA1 050616Z 12005KT 31/13 A2991 RMK A01 T03070129  RH  034%=      5-min Rain = 0
KLA1 050617Z 12005KT 31/13 A2991 RMK A01 T03070129  RH  034%=      5-min Rain = 0
KLA1 050618Z 12005KT 31/13 A2991 RMK A01 T03060129  RH  034%=      5-min Rain = 0
KLA1 050619Z 13006KT 31/13 A2991 RMK A01 T03060129  RH  034%=      5-min Rain = 0
KLA1 050620Z 13007KT 31/13 A2991 RMK A01 T03060129  RH  034%=      5-min Rain = 0
KLA1 050621Z 13006KT 31/13 A2991 RMK A01 T03070129  RH  034%=      5-min Rain = 0
KLA1 050622Z 13006KT 31/13 A2991 RMK A01 T03070129  RH  034%=      5-min Rain = 0
KLA1 050623Z 12006KT 31/13 A299 RMK A01 T03060129  RH  034%=      5-min Rain = 0
KLA1 050624Z 13005KT 31/13 A299 RMK A01 T03060130  RH  034%=      5-min Rain = 0
KLA1 050625Z 13006KT 31/13 A299 RMK A01 T03050129  RH  034%=      5-min Rain = 0
KLA1 050626Z 13007KT 31/13 A299 RMK A01 T03050130  RH  034%=      5-min Rain = 0
KLA1 050627Z 13007KT 31/13 A299 RMK A01 T03050129  RH  034%=      5-min Rain = 0
KLA1 050628Z 13006KT 31/13 A299 RMK A01 T03050129  RH  034%=      5-min Rain = 0
KLA1 050629Z 12005KT 31/13 A299 RMK A01 T03050129  RH  034%=      5-min Rain = 0
KLA1 050630Z 13006KT 30/13 A299 RMK A01 T03040130  RH  034%=      5-min Rain = 0
KLA1 050631Z 13006KT 30/13 A299 RMK A01 T03040130  RH  035%=      5-min Rain = 0
KLA1 050632Z 13007KT 30/13 A299 RMK A01 T03030130  RH  035%=      5-min Rain = 0
KLA1 050633Z 13008KT 30/13 A299 RMK A01 T03030130  RH  035%=      5-min Rain = 0
KLA1 050634Z 13006KT 30/13 A299 RMK A01 T03030130  RH  035%=      5-min Rain = 0
KLA1 050635Z 13008KT 30/13 A299 RMK A01 T03030130  RH  035%=      5-min Rain = 0
KLA1 050636Z 12006KT 30/13 A299 RMK A01 T03020131  RH  035%=      5-min Rain = 0
KLA1 050637Z 12007KT 30/13 A299 RMK A01 T03020130  RH  035%=      5-min Rain = 0
KLA1 050638Z 12006KT 30/13 A299 RMK A01 T03010130  RH  035%=      5-min Rain = 0
KLA1 050639Z 12006KT 30/13 A299 RMK A01 T03010131  RH  035%=      5-min Rain = 0
KLA1 050640Z 13006KT 30/13 A299 RMK A01 T03000131  RH  035%=      5-min Rain = 0
KLA1 050641Z 12006KT 30/13 A299 RMK A01 T03000131  RH  035%=      5-min Rain = 0
KLA1 050642Z 12006KT 30/13 A299 RMK A01 T03000131  RH  036%=      5-min Rain = 0
KLA1 050643Z 12006KT 30/13 A299 RMK A01 T03000131  RH  036%=      5-min Rain = 0
KLA1 050644Z 12006KT 30/13 A299 RMK A01 T03000131  RH  036%=      5-min Rain = 0
KLA1 050645Z 12006KT 30/13 A299 RMK A01 T03000131  RH  036%=      5-min Rain = 0
KLA1 050646Z 12006KT 30/13 A2991 RMK A01 T03000131  RH  036%=      5-min Rain = 0
KLA1 050647Z 12006KT 30/13 A2991 RMK A01 T03000132  RH  036%=      5-min Rain = 0
KLA1 050648Z 12006KT 30/13 A2991 RMK A01 T02990132  RH  036%=      5-min Rain = 0
KLA1 050649Z 12006KT 30/13 A2991 RMK A01 T02990131  RH  036%=      5-min Rain = 0
KLA1 050650Z 13006KT 30/13 A2991 RMK A01 T02990132  RH  036%=      5-min Rain = 0
KLA1 050651Z 12006KT 30/13 A2991 RMK A01 T02990132  RH  036%=      5-min Rain = 0
KLA1 050652Z 12006KT 30/13 A2991 RMK A01 T02990132  RH  036%=      5-min Rain = 0
KLA1 050653Z 12006KT 30/13 A2991 RMK A01 T02990132  RH  036%=      5-min Rain = 0
KLA1 050654Z 13007KT 30/13 A2991 RMK A01 T02990132  RH  036%=      5-min Rain = 0
KLA1 050655Z 12007KT 30/13 A2991 RMK A01 T02990132  RH  036%=      5-min Rain = 0
KLA1 050656Z 12007KT 30/13 A2991 RMK A01 T02990132  RH  036%=      5-min Rain = 0
KLA1 050657Z 13006KT 30/13 A299 RMK A01 T02990132  RH  036%=      5-min Rain = 0
KLA1 050658Z 13006KT 30/13 A299 RMK A01 T02990133  RH  036%=      5-min Rain = 0
KLA1 050659Z 13006KT 30/13 A299 RMK A01 T02980133  RH  036%=      5-min Rain = 0
KLA1 050700Z 14009KT 30/13 A299 RMK A01 T02980133  RH  036%=      5-min Rain = 0
KLA1 050701Z 14008KT 30/13 A299 RMK A01 T02990134  RH  036%=      5-min Rain = 0
KLA1 050702Z 13006KT 30/14 A299 RMK A01 T03010135  RH  036%=      5-min Rain = 0
KLA1 050703Z 14006KT 30/13 A299 RMK A01 T03010134  RH  036%=      5-min Rain = 0
KLA1 050704Z 14007KT 30/13 A299 RMK A01 T03010134  RH  036%=      5-min Rain = 0
KLA1 050705Z 13006KT 30/14 A299 RMK A01 T03000135  RH  036%=      5-min Rain = 0
KLA1 050706Z 13006KT 30/14 A2991 RMK A01 T03010135  RH  036%=      5-min Rain = 0
KLA1 050707Z 14008KT 30/13 A2991 RMK A01 T03010134  RH  036%=      5-min Rain = 0
KLA1 050708Z 14008KT 30/14 A2991 RMK A01 T03020136  RH  036%=      5-min Rain = 0
KLA1 050709Z 14009KT 30/14 A2991 RMK A01 T03030136  RH  036%=      5-min Rain = 0
KLA1 050710Z 14011KT 30/14 A2991 RMK A01 T03040138  RH  036%=      5-min Rain = 0
KLA1 050711Z 13008G13KT 31/14 A2991 RMK A01 T03050138  RH  036%=      5-min Rain = 0
KLA1 050712Z 14012G17KT 31/14 A2991 RMK A01 T03050137  RH  036%=      5-min Rain = 0
KLA1 050713Z 14010KT 31/14 A2991 RMK A01 T03060138  RH  036%=      5-min Rain = 0
KLA1 050714Z 14011KT 31/14 A2991 RMK A01 T03070139  RH  036%=      5-min Rain = 0
KLA1 050715Z 13008KT 31/14 A299 RMK A01 T03070139  RH  036%=      5-min Rain = 0
KLA1 050716Z 14012KT 31/14 A299 RMK A01 T03070139  RH  036%=      5-min Rain = 0
KLA1 050717Z 14010KT 31/14 A2991 RMK A01 T03070139  RH  036%=      5-min Rain = 0
KLA1 050718Z 14012KT 31/14 A2991 RMK A01 T03070139  RH  036%=      5-min Rain = 0
KLA1 050719Z 13008KT 31/14 A2991 RMK A01 T03060139  RH  036%=      5-min Rain = 0
KLA1 050720Z 13008KT 31/14 A2991 RMK A01 T03060139  RH  036%=      5-min Rain = 0
KLA1 050721Z 14009KT 31/14 A2991 RMK A01 T03050139  RH  036%=      5-min Rain = 0
KLA1 050722Z 14009KT 30/14 A2991 RMK A01 T03040139  RH  037%=      5-min Rain = 0
KLA1 050723Z 14009KT 30/14 A2991 RMK A01 T03040139  RH  037%=      5-min Rain = 0
KLA1 050724Z 13008KT 30/14 A2991 RMK A01 T03030139  RH  037%=      5-min Rain = 0
KLA1 050725Z 12006KT 30/14 A2991 RMK A01 T03020139  RH  037%=      5-min Rain = 0
KLA1 050726Z 13009KT 30/14 A2991 RMK A01 T03010138  RH  037%=      5-min Rain = 0
KLA1 050727Z 12006KT 30/14 A2991 RMK A01 T03000139  RH  037%=      5-min Rain = 0
KLA1 050728Z 12008KT 30/14 A2991 RMK A01 T03000139  RH  037%=      5-min Rain = 0
KLA1 050729Z 13008KT 30/14 A2991 RMK A01 T02990139  RH  038%=      5-min Rain = 0
KLA1 050730Z 12009KT 30/14 A2991 RMK A01 T02990139  RH  038%=      5-min Rain = 0
KLA1 050731Z 11007KT 30/14 A2991 RMK A01 T02980139  RH  038%=      5-min Rain = 0
KLA1 050732Z 11008KT 30/14 A2991 RMK A01 T02980138  RH  038%=      5-min Rain = 0
KLA1 050733Z 12009KT 30/14 A2991 RMK A01 T02970139  RH  038%=      5-min Rain = 0
KLA1 050734Z 12009KT 30/14 A2991 RMK A01 T02970139  RH  038%=      5-min Rain = 0
KLA1 050735Z 12008KT 30/14 A2991 RMK A01 T02970139  RH  038%=      5-min Rain = 0
KLA1 050736Z 12008KT 30/14 A2991 RMK A01 T02970140  RH  038%=      5-min Rain = 0
KLA1 050737Z 12008KT 30/14 A2991 RMK A01 T02970140  RH  038%=      5-min Rain = 0
KLA1 050738Z 12007KT 30/14 A2991 RMK A01 T02970140  RH  038%=      5-min Rain = 0
KLA1 050739Z 12008KT 30/14 A2991 RMK A01 T02960140  RH  039%=      5-min Rain = 0
KLA1 050740Z 12006KT 30/14 A2991 RMK A01 T02960140  RH  039%=      5-min Rain = 0
KLA1 050741Z 12007KT 30/14 A2991 RMK A01 T02950141  RH  039%=      5-min Rain = 0
KLA1 050742Z 13009KT 30/14 A2991 RMK A01 T02950141  RH  039%=      5-min Rain = 0
KLA1 050743Z 13009KT 29/14 A2991 RMK A01 T02940141  RH  039%=      5-min Rain = 0
KLA1 050744Z 13009KT 30/14 A2991 RMK A01 T02950142  RH  039%=      5-min Rain = 0
KLA1 050745Z 13008KT 30/14 A2991 RMK A01 T02950142  RH  039%=      5-min Rain = 0
KLA1 050746Z 13007KT 30/14 A2991 RMK A01 T02950142  RH  039%=      5-min Rain = 0
KLA1 050747Z 13007KT 29/14 A2991 RMK A01 T02940143  RH  040%=      5-min Rain = 0
KLA1 050748Z 13008KT 29/14 A2991 RMK A01 T02940143  RH  040%=      5-min Rain = 0
KLA1 050749Z 12007KT 29/14 A2991 RMK A01 T02940143  RH  040%=      5-min Rain = 0
KLA1 050750Z 12007KT 29/14 A2991 RMK A01 T02940144  RH  040%=      5-min Rain = 0
KLA1 050751Z 12007KT 29/14 A2991 RMK A01 T02930144  RH  040%=      5-min Rain = 0
KLA1 050752Z 12007KT 29/14 A2991 RMK A01 T02930144  RH  040%=      5-min Rain = 0
KLA1 050753Z 12007KT 29/15 A2991 RMK A01 T02930145  RH  040%=      5-min Rain = 0
KLA1 050754Z 12006KT 29/15 A2991 RMK A01 T02930145  RH  040%=      5-min Rain = 0
KLA1 050755Z 12007KT 29/15 A2991 RMK A01 T02930145  RH  041%=      5-min Rain = 0
KLA1 050756Z 12006KT 29/15 A2991 RMK A01 T02920145  RH  041%=      5-min Rain = 0
KLA1 050757Z 12006KT 29/15 A2991 RMK A01 T02920145  RH  041%=      5-min Rain = 0
KLA1 050758Z 12007KT 29/15 A2991 RMK A01 T02920145  RH  041%=      5-min Rain = 0
KLA1 050759Z 12008KT 29/15 A2991 RMK A01 T02930146  RH  041%=      5-min Rain = 0
KLA1 050800Z 13008KT 29/15 A2991 RMK A01 T02930146  RH  041%=      5-min Rain = 0
KLA1 050801Z 12007KT 29/15 A2991 RMK A01 T02920146  RH  041%=      5-min Rain = 0
KLA1 050802Z 12007KT 29/15 A2991 RMK A01 T02920147  RH  041%=      5-min Rain = 0
KLA1 050803Z 13007KT 29/15 A299 RMK A01 T02920147  RH  041%=      5-min Rain = 0
KLA1 050804Z 12007KT 29/15 A299 RMK A01 T02920147  RH  041%=      5-min Rain = 0
KLA1 050805Z 12007KT 29/15 A2991 RMK A01 T02920147  RH  041%=      5-min Rain = 0
KLA1 050806Z 13006KT 29/15 A2991 RMK A01 T02910147  RH  041%=      5-min Rain = 0
KLA1 050807Z 13007KT 29/15 A2991 RMK A01 T02910147  RH  041%=      5-min Rain = 0
KLA1 050808Z 13008KT 29/15 A2991 RMK A01 T02910147  RH  042%=      5-min Rain = 0
KLA1 050809Z 14009KT 29/15 A2991 RMK A01 T02910148  RH  042%=      5-min Rain = 0
KLA1 050810Z 13010KT 29/15 A299 RMK A01 T02910148  RH  042%=      5-min Rain = 0
KLA1 050811Z 12009KT 29/15 A299 RMK A01 T02920148  RH  042%=      5-min Rain = 0
KLA1 050812Z 12007KT 29/15 A299 RMK A01 T02930148  RH  041%=      5-min Rain = 0
KLA1 050813Z 12010KT 29/15 A299 RMK A01 T02930149  RH  042%=      5-min Rain = 0
KLA1 050814Z 13008KT 29/15 A299 RMK A01 T02930149  RH  042%=      5-min Rain = 0
KLA1 050815Z 13012KT 29/15 A299 RMK A01 T02930150  RH  042%=      5-min Rain = 0
KLA1 050816Z 14011KT 29/15 A299 RMK A01 T02930150  RH  042%=      5-min Rain = 0
KLA1 050817Z 14010KT 29/15 A299 RMK A01 T02940151  RH  042%=      5-min Rain = 0
KLA1 050818Z 13012KT 29/15 A299 RMK A01 T02940151  RH  042%=      5-min Rain = 0
KLA1 050819Z 13010KT 30/15 A299 RMK A01 T02950151  RH  042%=      5-min Rain = 0
KLA1 050820Z 13010KT 29/15 A299 RMK A01 T02940151  RH  042%=      5-min Rain = 0
KLA1 050821Z 13009KT 30/15 A299 RMK A01 T02950152  RH  042%=      5-min Rain = 0
KLA1 050822Z 13010G15KT 29/15 A299 RMK A01 T02940151  RH  042%=      5-min Rain = 0
KLA1 050823Z 13008KT 29/15 A299 RMK A01 T02940152  RH  042%=      5-min Rain = 0
KLA1 050824Z 12009KT 29/15 A299 RMK A01 T02930152  RH  042%=      5-min Rain = 0
KLA1 050825Z 13010KT 29/15 A299 RMK A01 T02930152  RH  042%=      5-min Rain = 0
KLA1 050826Z 13010KT 29/15 A2991 RMK A01 T02930152  RH  042%=      5-min Rain = 0
KLA1 050827Z 13010KT 29/15 A2991 RMK A01 T02920152  RH  043%=      5-min Rain = 0
KLA1 050828Z 13010KT 29/15 A2991 RMK A01 T02920152  RH  043%=      5-min Rain = 0
KLA1 050829Z 13007KT 29/15 A2991 RMK A01 T02920152  RH  043%=      5-min Rain = 0
KLA1 050830Z 12008KT 29/15 A2991 RMK A01 T02920152  RH  043%=      5-min Rain = 0
KLA1 050831Z 13010KT 29/15 A2991 RMK A01 T02910152  RH  043%=      5-min Rain = 0
KLA1 050832Z 13008KT 29/15 A2991 RMK A01 T02910152  RH  043%=      5-min Rain = 0
KLA1 050833Z 13008KT 29/15 A2991 RMK A01 T02910152  RH  043%=      5-min Rain = 0
KLA1 050834Z 13009KT 29/15 A2991 RMK A01 T02900153  RH  043%=      5-min Rain = 0
KLA1 050835Z 13008KT 29/15 A2991 RMK A01 T02900153  RH  043%=      5-min Rain = 0
KLA1 050836Z 13008KT 29/15 A2991 RMK A01 T02890153  RH  043%=      5-min Rain = 0
KLA1 050837Z 13006KT 29/15 A2991 RMK A01 T02890153  RH  044%=      5-min Rain = 0
KLA1 050838Z 13008KT 29/15 A2991 RMK A01 T02880153  RH  044%=      5-min Rain = 0
KLA1 050839Z 13007KT 29/15 A2991 RMK A01 T02880153  RH  044%=      5-min Rain = 0
KLA1 050840Z 11007KT 29/15 A2991 RMK A01 T02880153  RH  044%=      5-min Rain = 0
KLA1 050841Z 12007KT 29/15 A2991 RMK A01 T02880153  RH  044%=      5-min Rain = 0
KLA1 050842Z 12009KT 29/15 A2991 RMK A01 T02880154  RH  044%=      5-min Rain = 0
KLA1 050843Z 12008KT 29/15 A2991 RMK A01 T02870154  RH  044%=      5-min Rain = 0
KLA1 050844Z 11009KT 29/15 A2991 RMK A01 T02870153  RH  044%=      5-min Rain = 0
KLA1 050845Z 12007KT 29/15 A2991 RMK A01 T02870153  RH  044%=      5-min Rain = 0
KLA1 050846Z 12008KT 29/15 A2991 RMK A01 T02870154  RH  044%=      5-min Rain = 0
KLA1 050847Z 11007KT 29/15 A2991 RMK A01 T02860154  RH  044%=      5-min Rain = 0
KLA1 050848Z 11008KT 29/15 A2991 RMK A01 T02860153  RH  045%=      5-min Rain = 0
KLA1 050849Z 11009KT 29/15 A2991 RMK A01 T02860154  RH  045%=      5-min Rain = 0
KLA1 050850Z 11008KT 29/15 A2991 RMK A01 T02850154  RH  045%=      5-min Rain = 0
KLA1 050851Z 11008KT 29/15 A2991 RMK A01 T02850154  RH  045%=      5-min Rain = 0
KLA1 050852Z 11008KT 29/15 A2991 RMK A01 T02850154  RH  045%=      5-min Rain = 0
KLA1 050853Z 11008KT 29/15 A2991 RMK A01 T02850154  RH  045%=      5-min Rain = 0
KLA1 050854Z 11007KT 29/15 A2991 RMK A01 T02850154  RH  045%=      5-min Rain = 0
KLA1 050855Z 12007KT 29/15 A2991 RMK A01 T02850154  RH  045%=      5-min Rain = 0
KLA1 050856Z 12007KT 28/15 A2991 RMK A01 T02840154  RH  045%=      5-min Rain = 0
KLA1 050857Z 12007KT 28/15 A2991 RMK A01 T02840154  RH  045%=      5-min Rain = 0
KLA1 050858Z 12007KT 28/15 A2991 RMK A01 T02840154  RH  045%=      5-min Rain = 0
KLA1 050859Z 12008KT 28/15 A2991 RMK A01 T02830154  RH  045%=      5-min Rain = 0
KLA1 050900Z 12007KT 28/16 A2991 RMK A01 T02830155  RH  045%=      5-min Rain = 0
KLA1 050901Z 12007KT 28/15 A2991 RMK A01 T02830154  RH  045%=      5-min Rain = 0
KLA1 050902Z 11008KT 28/15 A2991 RMK A01 T02830154  RH  046%=      5-min Rain = 0
KLA1 050903Z 12008KT 28/15 A2991 RMK A01 T02830154  RH  046%=      5-min Rain = 0
KLA1 050904Z 11008KT 28/15 A2991 RMK A01 T02820154  RH  046%=      5-min Rain = 0
KLA1 050905Z 12007KT 28/16 A2991 RMK A01 T02820155  RH  046%=      5-min Rain = 0
KLA1 050906Z 11007KT 28/15 A2991 RMK A01 T02820154  RH  046%=      5-min Rain = 0
KLA1 050907Z 11008KT 28/15 A2991 RMK A01 T02820154  RH  046%=      5-min Rain = 0
KLA1 050908Z 11008KT 28/15 A2991 RMK A01 T02820154  RH  046%=      5-min Rain = 0
KLA1 050909Z 12008KT 28/16 A2991 RMK A01 T02830155  RH  046%=      5-min Rain = 0
KLA1 050910Z 11007KT 28/16 A2991 RMK A01 T02830155  RH  046%=      5-min Rain = 0
KLA1 050911Z 11007KT 28/15 A2991 RMK A01 T02830154  RH  046%=      5-min Rain = 0
KLA1 050912Z 11009KT 28/15 A2991 RMK A01 T02830154  RH  046%=      5-min Rain = 0
KLA1 050913Z 11008KT 28/16 A2991 RMK A01 T02830155  RH  046%=      5-min Rain = 0
KLA1 050914Z 11007KT 28/16 A2991 RMK A01 T02830155  RH  046%=      5-min Rain = 0
KLA1 050915Z 12007KT 28/16 A2991 RMK A01 T02820155  RH  046%=      5-min Rain = 0
KLA1 050916Z 11006KT 28/16 A2991 RMK A01 T02830155  RH  046%=      5-min Rain = 0
KLA1 050917Z 11007KT 28/16 A2991 RMK A01 T02830155  RH  046%=      5-min Rain = 0
KLA1 050918Z 10006KT 28/15 A2991 RMK A01 T02820154  RH  046%=      5-min Rain = 0
KLA1 050919Z 12007KT 28/15 A2992 RMK A01 T02820154  RH  046%=      5-min Rain = 0
KLA1 050920Z 12006KT 28/15 A2992 RMK A01 T02820154  RH  046%=      5-min Rain = 0
KLA1 050921Z 11006KT 28/15 A2992 RMK A01 T02810154  RH  046%=      5-min Rain = 0
KLA1 050922Z 11006KT 28/15 A2992 RMK A01 T02820154  RH  046%=      5-min Rain = 0
KLA1 050923Z 11006KT 28/15 A2992 RMK A01 T02820154  RH  046%=      5-min Rain = 0
KLA1 050924Z 11005KT 28/15 A2992 RMK A01 T02820154  RH  046%=      5-min Rain = 0
KLA1 050925Z 12006KT 28/15 A2992 RMK A01 T02820154  RH  046%=      5-min Rain = 0
KLA1 050926Z 12006KT 28/15 A2992 RMK A01 T02810154  RH  046%=      5-min Rain = 0
KLA1 050927Z 11005KT 28/16 A2992 RMK A01 T02820155  RH  046%=      5-min Rain = 0
KLA1 050928Z 12006KT 28/15 A2992 RMK A01 T02810154  RH  046%=      5-min Rain = 0
KLA1 050929Z 11006KT 28/15 A2992 RMK A01 T02810154  RH  046%=      5-min Rain = 0
KLA1 050930Z 11007KT 28/15 A2992 RMK A01 T02810154  RH  046%=      5-min Rain = 0
KLA1 050931Z 11006KT 28/15 A2992 RMK A01 T02810153  RH  046%=      5-min Rain = 0
KLA1 050932Z 11005KT 28/15 A2992 RMK A01 T02820154  RH  046%=      5-min Rain = 0
KLA1 050933Z 11005KT 28/15 A2992 RMK A01 T02820154  RH  046%=      5-min Rain = 0
KLA1 050934Z 11006KT 28/15 A2992 RMK A01 T02820154  RH  046%=      5-min Rain = 0
KLA1 050935Z 11006KT 28/15 A2992 RMK A01 T02820154  RH  046%=      5-min Rain = 0
KLA1 050936Z 11006KT 28/15 A2992 RMK A01 T02820154  RH  046%=      5-min Rain = 0
KLA1 050937Z 12007KT 28/15 A2992 RMK A01 T02820154  RH  045%=      5-min Rain = 0
KLA1 050938Z 11006KT 28/15 A2992 RMK A01 T02830154  RH  046%=      5-min Rain = 0
KLA1 050939Z 11004KT 28/15 A2992 RMK A01 T02820154  RH  046%=      5-min Rain = 0
KLA1 050940Z 11005KT 28/15 A2992 RMK A01 T02810154  RH  046%=      5-min Rain = 0
KLA1 050941Z 11006KT 28/15 A2992 RMK A01 T02810154  RH  046%=      5-min Rain = 0
KLA1 050942Z 11006KT 28/15 A2992 RMK A01 T02810154  RH  046%=      5-min Rain = 0
KLA1 050943Z 10005KT 28/15 A2992 RMK A01 T02810154  RH  046%=      5-min Rain = 0
KLA1 050944Z 10007KT 28/15 A2992 RMK A01 T02810154  RH  046%=      5-min Rain = 0
KLA1 050945Z 10006KT 28/15 A2992 RMK A01 T02820153  RH  046%=      5-min Rain = 0
KLA1 050946Z 10005KT 28/15 A2992 RMK A01 T02820154  RH  046%=      5-min Rain = 0
KLA1 050947Z 10004KT 28/15 A2992 RMK A01 T02830154  RH  045%=      5-min Rain = 0
KLA1 050948Z 10004KT 28/15 A2992 RMK A01 T02820154  RH  046%=      5-min Rain = 0
KLA1 050949Z 11004KT 28/15 A2992 RMK A01 T02810154  RH  046%=      5-min Rain = 0
KLA1 050950Z 10004KT 28/15 A2992 RMK A01 T02810153  RH  046%=      5-min Rain = 0
KLA1 050951Z 12004KT 28/15 A2992 RMK A01 T02800153  RH  046%=      5-min Rain = 0
KLA1 050952Z 11003KT 28/15 A2992 RMK A01 T02790153  RH  046%=      5-min Rain = 0
KLA1 050953Z 10004KT 28/15 A2993 RMK A01 T02790153  RH  046%=      5-min Rain = 0
KLA1 050954Z 10005KT 28/15 A2993 RMK A01 T02790153  RH  046%=      5-min Rain = 0
KLA1 050955Z 11005KT 28/15 A2993 RMK A01 T02790153  RH  046%=      5-min Rain = 0
KLA1 050956Z 09003KT 28/15 A2993 RMK A01 T02790153  RH  046%=      5-min Rain = 0
KLA1 050957Z 09003KT 28/15 A2992 RMK A01 T02790153  RH  046%=      5-min Rain = 0
KLA1 050958Z 09004KT 28/15 A2993 RMK A01 T02790153  RH  046%=      5-min Rain = 0
KLA1 050959Z 09004KT 28/15 A2993 RMK A01 T02800153  RH  046%=      5-min Rain = 0
KLA1 051000Z 11005KT 28/15 A2993 RMK A01 T02800153  RH  046%=      5-min Rain = 0
KLA1 051001Z 11004KT 28/15 A2993 RMK A01 T02790153  RH  046%=      5-min Rain = 0
KLA1 051002Z 11005KT 28/15 A2992 RMK A01 T02790153  RH  046%=      5-min Rain = 0
KLA1 051003Z 12004KT 28/15 A2993 RMK A01 T02780153  RH  046%=      5-min Rain = 0
KLA1 051004Z 12005KT 28/15 A2992 RMK A01 T02780153  RH  046%=      5-min Rain = 0
KLA1 051005Z 11003KT 28/15 A2992 RMK A01 T02780153  RH  047%=      5-min Rain = 0
KLA1 051006Z 12004KT 28/15 A2992 RMK A01 T02770153  RH  047%=      5-min Rain = 0
KLA1 051007Z 11004KT 28/15 A2993 RMK A01 T02760153  RH  047%=      5-min Rain = 0
KLA1 051008Z 11004KT 28/15 A2993 RMK A01 T02760153  RH  047%=      5-min Rain = 0
KLA1 051009Z 10004KT 28/15 A2993 RMK A01 T02750153  RH  047%=      5-min Rain = 0
KLA1 051010Z 10005KT 27/15 A2993 RMK A01 T02740152  RH  047%=      5-min Rain = 0
KLA1 051011Z 09004KT 27/15 A2993 RMK A01 T02740153  RH  047%=      5-min Rain = 0
KLA1 051012Z 08003KT 28/15 A2993 RMK A01 T02750153  RH  047%=      5-min Rain = 0
KLA1 051013Z 09004KT 28/15 A2993 RMK A01 T02750152  RH  047%=      5-min Rain = 0
KLA1 051014Z 09004KT 28/15 A2993 RMK A01 T02750152  RH  047%=      5-min Rain = 0
KLA1 051015Z 10006KT 28/15 A2993 RMK A01 T02750153  RH  047%=      5-min Rain = 0
KLA1 051016Z 09004KT 28/15 A2993 RMK A01 T02760153  RH  047%=      5-min Rain = 0
KLA1 051017Z 10003KT 28/15 A2993 RMK A01 T02760153  RH  047%=      5-min Rain = 0
KLA1 051018Z 11004KT 28/15 A2993 RMK A01 T02760153  RH  047%=      5-min Rain = 0
KLA1 051019Z 11004KT 28/15 A2993 RMK A01 T02760153  RH  047%=      5-min Rain = 0
KLA1 051020Z 11004KT 28/15 A2993 RMK A01 T02760153  RH  047%=      5-min Rain = 0
KLA1 051021Z 11005KT 28/15 A2993 RMK A01 T02750153  RH  047%=      5-min Rain = 0
KLA1 051022Z 10004KT 28/15 A2993 RMK A01 T02750153  RH  047%=      5-min Rain = 0
KLA1 051023Z 10006KT 27/15 A2993 RMK A01 T02740153  RH  047%=      5-min Rain = 0
KLA1 051024Z 10006KT 27/15 A2993 RMK A01 T02740153  RH  048%=      5-min Rain = 0
KLA1 051025Z 10006KT 27/15 A2993 RMK A01 T02740153  RH  047%=      5-min Rain = 0
KLA1 051026Z 10006KT 28/15 A2993 RMK A01 T02750153  RH  047%=      5-min Rain = 0
KLA1 051027Z 10007KT 28/15 A2993 RMK A01 T02760153  RH  047%=      5-min Rain = 0
KLA1 051028Z 10006KT 28/15 A2993 RMK A01 T02760153  RH  047%=      5-min Rain = 0
KLA1 051029Z 10006KT 28/15 A2993 RMK A01 T02770153  RH  047%=      5-min Rain = 0
KLA1 051030Z 09006KT 28/15 A2993 RMK A01 T02770153  RH  047%=      5-min Rain = 0
KLA1 051031Z 10006KT 28/15 A2993 RMK A01 T02770153  RH  047%=      5-min Rain = 0
KLA1 051032Z 10007KT 28/15 A2993 RMK A01 T02770154  RH  047%=      5-min Rain = 0
KLA1 051033Z 10006KT 28/15 A2993 RMK A01 T02770154  RH  047%=      5-min Rain = 0
KLA1 051034Z 10008KT 28/15 A2993 RMK A01 T02770154  RH  047%=      5-min Rain = 0
KLA1 051035Z 10006KT 28/15 A2993 RMK A01 T02770154  RH  047%=      5-min Rain = 0
KLA1 051036Z 10007KT 28/15 A2993 RMK A01 T02770154  RH  047%=      5-min Rain = 0
KLA1 051037Z 10006KT 28/15 A2993 RMK A01 T02770154  RH  047%=      5-min Rain = 0
KLA1 051038Z 11006KT 28/15 A2993 RMK A01 T02770154  RH  047%=      5-min Rain = 0
KLA1 051039Z 10006KT 28/15 A2993 RMK A01 T02770154  RH  047%=      5-min Rain = 0
KLA1 051040Z 11006KT 28/15 A2993 RMK A01 T02760154  RH  047%=      5-min Rain = 0
KLA1 051041Z 11007KT 28/15 A2993 RMK A01 T02760154  RH  047%=      5-min Rain = 0
KLA1 051042Z 11007KT 28/15 A2993 RMK A01 T02760154  RH  047%=      5-min Rain = 0
KLA1 051043Z 10006KT 28/15 A2993 RMK A01 T02760154  RH  047%=      5-min Rain = 0
KLA1 051044Z 10007KT 28/15 A2993 RMK A01 T02760154  RH  047%=      5-min Rain = 0
KLA1 051045Z 11007KT 28/15 A2993 RMK A01 T02760154  RH  047%=      5-min Rain = 0
KLA1 051046Z 10006KT 28/15 A2993 RMK A01 T02760154  RH  047%=      5-min Rain = 0
KLA1 051047Z 11006KT 28/15 A2993 RMK A01 T02760154  RH  047%=      5-min Rain = 0
KLA1 051048Z 11006KT 28/15 A2993 RMK A01 T02760154  RH  047%=      5-min Rain = 0
KLA1 051049Z 10005KT 28/15 A2993 RMK A01 T02750154  RH  047%=      5-min Rain = 0
KLA1 051050Z 10006KT 28/15 A2993 RMK A01 T02750154  RH  048%=      5-min Rain = 0
KLA1 051051Z 11006KT 28/15 A2993 RMK A01 T02750154  RH  048%=      5-min Rain = 0
KLA1 051052Z 11006KT 27/15 A2993 RMK A01 T02740154  RH  048%=      5-min Rain = 0
KLA1 051053Z 11004KT 27/15 A2993 RMK A01 T02740154  RH  048%=      5-min Rain = 0
KLA1 051054Z 10005KT 27/15 A2993 RMK A01 T02740154  RH  048%=      5-min Rain = 0
KLA1 051055Z 11006KT 27/15 A2993 RMK A01 T02740154  RH  048%=      5-min Rain = 0
KLA1 051056Z 11005KT 27/16 A2993 RMK A01 T02740155  RH  048%=      5-min Rain = 0
KLA1 051057Z 10005KT 27/15 A2993 RMK A01 T02740154  RH  048%=      5-min Rain = 0
KLA1 051058Z 10005KT 27/16 A2993 RMK A01 T02740155  RH  048%=      5-min Rain = 0
KLA1 051059Z 10004KT 27/16 A2993 RMK A01 T02740155  RH  048%=      5-min Rain = 0
KLA1 051100Z 11004KT 27/15 A2993 RMK A01 T02730154  RH  048%=      5-min Rain = 0
KLA1 051101Z 11005KT 27/16 A2993 RMK A01 T02730155  RH  048%=      5-min Rain = 0
KLA1 051102Z 11005KT 27/15 A2993 RMK A01 T02720154  RH  049%=      5-min Rain = 0
KLA1 051103Z 11004KT 27/16 A2993 RMK A01 T02720155  RH  049%=      5-min Rain = 0
KLA1 051104Z 11005KT 27/16 A2993 RMK A01 T02720155  RH  049%=      5-min Rain = 0
KLA1 051105Z 11005KT 27/16 A2993 RMK A01 T02710155  RH  049%=      5-min Rain = 0
KLA1 051106Z 10004KT 27/16 A2993 RMK A01 T02710155  RH  049%=      5-min Rain = 0
KLA1 051107Z 11004KT 27/16 A2993 RMK A01 T02700155  RH  049%=      5-min Rain = 0
KLA1 051108Z 11004KT 27/16 A2993 RMK A01 T02700155  RH  049%=      5-min Rain = 0
KLA1 051109Z 11004KT 27/16 A2993 RMK A01 T02700155  RH  049%=      5-min Rain = 0
KLA1 051110Z 11003KT 27/16 A2993 RMK A01 T02700155  RH  049%=      5-min Rain = 0
KLA1 051111Z 11005KT 27/16 A2993 RMK A01 T02700155  RH  049%=      5-min Rain = 0
KLA1 051112Z 10004KT 27/16 A2993 RMK A01 T02690155  RH  050%=      5-min Rain = 0
KLA1 051113Z 10004KT 27/16 A2993 RMK A01 T02690155  RH  050%=      5-min Rain = 0
KLA1 051114Z 10004KT 27/16 A2993 RMK A01 T02690155  RH  049%=      5-min Rain = 0
KLA1 051115Z 10004KT 27/16 A2993 RMK A01 T02700155  RH  049%=      5-min Rain = 0
KLA1 051116Z 10005KT 27/16 A2993 RMK A01 T02700155  RH  049%=      5-min Rain = 0
KLA1 051117Z 11004KT 27/16 A2993 RMK A01 T02710155  RH  049%=      5-min Rain = 0
KLA1 051118Z 11003KT 27/16 A2993 RMK A01 T02700155  RH  049%=      5-min Rain = 0
KLA1 051119Z 11004KT 27/16 A2993 RMK A01 T02700155  RH  049%=      5-min Rain = 0
KLA1 051120Z 12005KT 27/16 A2993 RMK A01 T02700155  RH  049%=      5-min Rain = 0
KLA1 051121Z 11004KT 27/16 A2993 RMK A01 T02700155  RH  049%=      5-min Rain = 0
KLA1 051122Z 11005KT 27/16 A2993 RMK A01 T02690155  RH  050%=      5-min Rain = 0
KLA1 051123Z 11005KT 27/16 A2993 RMK A01 T02690156  RH  050%=      5-min Rain = 0
KLA1 051124Z 12004KT 27/16 A2993 RMK A01 T02690155  RH  050%=      5-min Rain = 0
KLA1 051125Z 12004KT 27/16 A2993 RMK A01 T02680155  RH  050%=      5-min Rain = 0
KLA1 051126Z 12004KT 27/16 A2993 RMK A01 T02670155  RH  050%=      5-min Rain = 0
KLA1 051127Z 12004KT 27/16 A2993 RMK A01 T02670155  RH  050%=      5-min Rain = 0
KLA1 051128Z 12004KT 27/16 A2993 RMK A01 T02670155  RH  050%=      5-min Rain = 0
KLA1 051129Z 12004KT 27/16 A2993 RMK A01 T02670155  RH  050%=      5-min Rain = 0
KLA1 051130Z 11004KT 27/16 A2993 RMK A01 T02660155  RH  050%=      5-min Rain = 0
KLA1 051131Z 11004KT 27/16 A2993 RMK A01 T02650155  RH  051%=      5-min Rain = 0
KLA1 051132Z 11004KT 27/16 A2993 RMK A01 T02650155  RH  051%=      5-min Rain = 0
KLA1 051133Z 12004KT 27/16 A2993 RMK A01 T02650155  RH  051%=      5-min Rain = 0
KLA1 051134Z 11005KT 26/16 A2993 RMK A01 T02640155  RH  051%=      5-min Rain = 0
KLA1 051135Z 11004KT 26/16 A2993 RMK A01 T02640155  RH  051%=      5-min Rain = 0
KLA1 051136Z 11004KT 26/16 A2993 RMK A01 T02640155  RH  051%=      5-min Rain = 0
KLA1 051137Z 11004KT 26/16 A2993 RMK A01 T02640155  RH  051%=      5-min Rain = 0
KLA1 051138Z 11005KT 26/16 A2993 RMK A01 T02640155  RH  051%=      5-min Rain = 0
KLA1 051139Z 11004KT 26/16 A2993 RMK A01 T02640155  RH  051%=      5-min Rain = 0
KLA1 051140Z 11005KT 26/16 A2993 RMK A01 T02640155  RH  051%=      5-min Rain = 0
KLA1 051141Z 11004KT 26/16 A2993 RMK A01 T02640155  RH  051%=      5-min Rain = 0
KLA1 051142Z 11004KT 26/16 A2993 RMK A01 T02640155  RH  051%=      5-min Rain = 0
KLA1 051143Z 11004KT 26/16 A2993 RMK A01 T02640155  RH  051%=      5-min Rain = 0
KLA1 051144Z 11004KT 26/16 A2993 RMK A01 T02640155  RH  051%=      5-min Rain = 0
KLA1 051145Z 12004KT 26/16 A2993 RMK A01 T02640155  RH  051%=      5-min Rain = 0
KLA1 051146Z 11004KT 26/16 A2993 RMK A01 T02640156  RH  051%=      5-min Rain = 0
KLA1 051147Z 11005KT 26/16 A2993 RMK A01 T02640155  RH  051%=      5-min Rain = 0
KLA1 051148Z 11005KT 26/16 A2993 RMK A01 T02640155  RH  051%=      5-min Rain = 0
KLA1 051149Z 10004KT 27/16 A2993 RMK A01 T02650155  RH  051%=      5-min Rain = 0
KLA1 051150Z 10005KT 27/16 A2993 RMK A01 T02660156  RH  051%=      5-min Rain = 0
KLA1 051151Z 10006KT 27/16 A2993 RMK A01 T02660156  RH  051%=      5-min Rain = 0
KLA1 051152Z 10004KT 27/16 A2993 RMK A01 T02660155  RH  051%=      5-min Rain = 0
KLA1 051153Z 10006KT 27/16 A2993 RMK A01 T02660156  RH  051%=      5-min Rain = 0
KLA1 051154Z 10006KT 27/16 A2993 RMK A01 T02660156  RH  051%=      5-min Rain = 0
KLA1 051155Z 10006KT 27/16 A2993 RMK A01 T02660156  RH  051%=      5-min Rain = 0
KLA1 051156Z 10006KT 27/16 A2993 RMK A01 T02670156  RH  051%=      5-min Rain = 0
KLA1 051157Z 10005KT 27/16 A2993 RMK A01 T02660156  RH  051%=      5-min Rain = 0
KLA1 051158Z 10006KT 27/16 A2993 RMK A01 T02660156  RH  051%=      5-min Rain = 0
KLA1 051159Z 10007KT 27/16 A2993 RMK A01 T02660156  RH  051%=      5-min Rain = 0
KLA1 051200Z 10007KT 27/16 A2993 RMK A01 T02660156  RH  051%=      5-min Rain = 0
KLA1 051201Z 10007KT 27/16 A2993 RMK A01 T02670156  RH  051%=      5-min Rain = 0
KLA1 051202Z 10008KT 27/16 A2993 RMK A01 T02680157  RH  051%=      5-min Rain = 0
KLA1 051203Z 10005KT 27/16 A2993 RMK A01 T02680157  RH  050%=      5-min Rain = 0
KLA1 051204Z 10008KT 27/16 A2993 RMK A01 T02680157  RH  050%=      5-min Rain = 0
KLA1 051205Z 10007KT 27/16 A2993 RMK A01 T02680157  RH  050%=      5-min Rain = 0
KLA1 051206Z 10006KT 27/16 A2993 RMK A01 T02690157  RH  050%=      5-min Rain = 0
KLA1 051207Z 10007KT 27/16 A2993 RMK A01 T02680157  RH  050%=      5-min Rain = 0
KLA1 051208Z 11008KT 27/16 A2993 RMK A01 T02680157  RH  051%=      5-min Rain = 0
KLA1 051209Z 10007KT 27/16 A2993 RMK A01 T02680157  RH  051%=      5-min Rain = 0
KLA1 051210Z 10007KT 27/16 A2993 RMK A01 T02680157  RH  051%=      5-min Rain = 0
KLA1 051211Z 10005KT 27/16 A2993 RMK A01 T02680157  RH  050%=      5-min Rain = 0
KLA1 051212Z 10005KT 27/16 A2993 RMK A01 T02680157  RH  051%=      5-min Rain = 0
KLA1 051213Z 10007KT 27/16 A2993 RMK A01 T02680157  RH  051%=      5-min Rain = 0
KLA1 051214Z 10006KT 27/16 A2993 RMK A01 T02670157  RH  051%=      5-min Rain = 0
KLA1 051215Z 10005KT 27/16 A2993 RMK A01 T02670157  RH  051%=      5-min Rain = 0
KLA1 051216Z 10007KT 27/16 A2993 RMK A01 T02670157  RH  051%=      5-min Rain = 0
KLA1 051217Z 10005KT 27/16 A2993 RMK A01 T02670157  RH  051%=      5-min Rain = 0
KLA1 051218Z 10006KT 27/16 A2993 RMK A01 T02670158  RH  051%=      5-min Rain = 0
KLA1 051219Z 10006KT 27/16 A2993 RMK A01 T02670157  RH  051%=      5-min Rain = 0
KLA1 051220Z 11005KT 27/16 A2993 RMK A01 T02670158  RH  051%=      5-min Rain = 0
KLA1 051221Z 11007KT 27/16 A2993 RMK A01 T02670158  RH  051%=      5-min Rain = 0
KLA1 051222Z 11006KT 27/16 A2993 RMK A01 T02670158  RH  051%=      5-min Rain = 0
KLA1 051223Z 11005KT 27/16 A2993 RMK A01 T02670158  RH  051%=      5-min Rain = 0
KLA1 051224Z 11006KT 27/16 A2993 RMK A01 T02670158  RH  051%=      5-min Rain = 0
KLA1 051225Z 10005KT 27/16 A2993 RMK A01 T02670158  RH  051%=      5-min Rain = 0
KLA1 051226Z 11004KT 27/16 A2993 RMK A01 T02670158  RH  051%=      5-min Rain = 0
KLA1 051227Z 10006KT 27/16 A2993 RMK A01 T02670158  RH  051%=      5-min Rain = 0
KLA1 051228Z 11006KT 27/16 A2993 RMK A01 T02670158  RH  051%=      5-min Rain = 0
KLA1 051229Z 10005KT 27/16 A2993 RMK A01 T02670158  RH  051%=      5-min Rain = 0
KLA1 051230Z 09005KT 27/16 A2993 RMK A01 T02670158  RH  051%=      5-min Rain = 0
KLA1 051231Z 11005KT 27/16 A2993 RMK A01 T02680158  RH  051%=      5-min Rain = 0
KLA1 051232Z 10004KT 27/16 A2993 RMK A01 T02680158  RH  051%=      5-min Rain = 0
KLA1 051233Z 12004KT 27/16 A2994 RMK A01 T02680158  RH  051%=      5-min Rain = 0
KLA1 051234Z 11003KT 27/16 A2994 RMK A01 T02680159  RH  051%=      5-min Rain = 0
KLA1 051235Z 11004KT 27/16 A2994 RMK A01 T02680159  RH  051%=      5-min Rain = 0
KLA1 051236Z 12004KT 27/16 A2994 RMK A01 T02680158  RH  051%=      5-min Rain = 0
KLA1 051237Z 11004KT 27/16 A2994 RMK A01 T02680159  RH  051%=      5-min Rain = 0
KLA1 051238Z 12003KT 27/16 A2994 RMK A01 T02680159  RH  051%=      5-min Rain = 0
KLA1 051239Z 12003KT 27/16 A2994 RMK A01 T02680159  RH  051%=      5-min Rain = 0
KLA1 051240Z 11002KT 27/16 A2994 RMK A01 T02680160  RH  051%=      5-min Rain = 0
KLA1 051241Z 11003KT 27/16 A2994 RMK A01 T02680160  RH  051%=      5-min Rain = 0
KLA1 051242Z 11003KT 27/16 A2994 RMK A01 T02690160  RH  051%=      5-min Rain = 0
KLA1 051243Z 11003KT 27/16 A2994 RMK A01 T02700160  RH  051%=      5-min Rain = 0
KLA1 051244Z 10003KT 27/16 A2994 RMK A01 T02700160  RH  051%=      5-min Rain = 0
KLA1 051245Z 11004KT 27/16 A2994 RMK A01 T02710160  RH  051%=      5-min Rain = 0
KLA1 051246Z 11004KT 27/16 A2994 RMK A01 T02720161  RH  051%=      5-min Rain = 0
KLA1 051247Z 12004KT 27/16 A2994 RMK A01 T02720161  RH  051%=      5-min Rain = 0
KLA1 051248Z 11003KT 27/16 A2994 RMK A01 T02730161  RH  051%=      5-min Rain = 0
KLA1 051249Z 12003KT 27/16 A2994 RMK A01 T02730161  RH  050%=      5-min Rain = 0
KLA1 051250Z 11004KT 27/16 A2994 RMK A01 T02730161  RH  050%=      5-min Rain = 0
KLA1 051251Z 13003KT 27/16 A2994 RMK A01 T02740162  RH  051%=      5-min Rain = 0
KLA1 051252Z 12004KT 27/16 A2994 RMK A01 T02730162  RH  051%=      5-min Rain = 0
KLA1 051253Z 13004KT 27/16 A2994 RMK A01 T02730161  RH  050%=      5-min Rain = 0
KLA1 051254Z 13003KT 27/16 A2994 RMK A01 T02730161  RH  051%=      5-min Rain = 0
KLA1 051255Z 13005KT 27/16 A2994 RMK A01 T02720162  RH  051%=      5-min Rain = 0
KLA1 051256Z 12005KT 27/16 A2994 RMK A01 T02720161  RH  051%=      5-min Rain = 0
KLA1 051257Z 12005KT 27/16 A2994 RMK A01 T02720161  RH  051%=      5-min Rain = 0
KLA1 051258Z 12005KT 27/16 A2994 RMK A01 T02710161  RH  051%=      5-min Rain = 0
KLA1 051259Z 12005KT 27/16 A2994 RMK A01 T02710161  RH  051%=      5-min Rain = 0
KLA1 051300Z 12005KT 27/16 A2994 RMK A01 T02710161  RH  051%=      5-min Rain = 0
KLA1 051301Z 11006KT 27/16 A2994 RMK A01 T02710161  RH  051%=      5-min Rain = 0
KLA1 051302Z 12006KT 27/16 A2994 RMK A01 T02710161  RH  051%=      5-min Rain = 0
KLA1 051303Z 11005KT 27/16 A2994 RMK A01 T02710161  RH  051%=      5-min Rain = 0
KLA1 051304Z 12005KT 27/16 A2994 RMK A01 T02710161  RH  051%=      5-min Rain = 0
KLA1 051305Z 12005KT 27/16 A2994 RMK A01 T02710161  RH  051%=      5-min Rain = 0
KLA1 051306Z 12005KT 27/16 A2994 RMK A01 T02710161  RH  051%=      5-min Rain = 0
KLA1 051307Z 12005KT 27/16 A2994 RMK A01 T02710161  RH  051%=      5-min Rain = 0
KLA1 051308Z 13005KT 27/16 A2994 RMK A01 T02720161  RH  051%=      5-min Rain = 0
KLA1 051309Z 13006KT 27/16 A2994 RMK A01 T02720161  RH  051%=      5-min Rain = 0
KLA1 051310Z 13005KT 27/16 A2994 RMK A01 T02720161  RH  051%=      5-min Rain = 0
KLA1 051311Z 13005KT 27/16 A2994 RMK A01 T02720161  RH  051%=      5-min Rain = 0
KLA1 051312Z 13005KT 27/16 A2994 RMK A01 T02720162  RH  051%=      5-min Rain = 0
KLA1 051313Z 13005KT 27/16 A2994 RMK A01 T02730162  RH  051%=      5-min Rain = 0
KLA1 051314Z 14006KT 27/16 A2994 RMK A01 T02740162  RH  050%=      5-min Rain = 0
KLA1 051315Z 13006KT 28/16 A2994 RMK A01 T02750162  RH  050%=      5-min Rain = 0
KLA1 051316Z 14006KT 28/16 A2994 RMK A01 T02760162  RH  050%=      5-min Rain = 0
KLA1 051317Z 14006KT 28/16 A2994 RMK A01 T02770162  RH  050%=      5-min Rain = 0
KLA1 051318Z 14007KT 28/16 A2994 RMK A01 T02770162  RH  049%=      5-min Rain = 0
KLA1 051319Z 13006KT 28/16 A2994 RMK A01 T02780162  RH  049%=      5-min Rain = 0
KLA1 051320Z 13006KT 28/16 A2994 RMK A01 T02780162  RH  049%=      5-min Rain = 0
KLA1 051321Z 13005KT 28/16 A2994 RMK A01 T02780162  RH  049%=      5-min Rain = 0
KLA1 051322Z 14006KT 28/16 A2994 RMK A01 T02790163  RH  049%=      5-min Rain = 0
KLA1 051323Z 15008KT 28/16 A2994 RMK A01 T02800163  RH  049%=      5-min Rain = 0
KLA1 051324Z 15006KT 28/16 A2994 RMK A01 T02800163  RH  049%=      5-min Rain = 0
KLA1 051325Z 14007KT 28/16 A2994 RMK A01 T02800164  RH  049%=      5-min Rain = 0
KLA1 051326Z 14007KT 28/16 A2994 RMK A01 T02810163  RH  049%=      5-min Rain = 0
KLA1 051327Z 14007KT 28/16 A2994 RMK A01 T02810164  RH  049%=      5-min Rain = 0
KLA1 051328Z 14009KT 28/16 A2994 RMK A01 T02810164  RH  049%=      5-min Rain = 0
KLA1 051329Z 15008KT 28/16 A2994 RMK A01 T02810164  RH  049%=      5-min Rain = 0
KLA1 051330Z 15007KT 28/16 A2994 RMK A01 T02810164  RH  049%=      5-min Rain = 0
KLA1 051331Z 14006KT 28/16 A2994 RMK A01 T02810164  RH  049%=      5-min Rain = 0
KLA1 051332Z 14005KT 28/16 A2994 RMK A01 T02820164  RH  049%=      5-min Rain = 0
KLA1 051333Z 15007KT 28/17 A2994 RMK A01 T02830165  RH  049%=      5-min Rain = 0
KLA1 051334Z 14007KT 28/16 A2994 RMK A01 T02830164  RH  048%=      5-min Rain = 0
KLA1 051335Z 16007KT 28/17 A2994 RMK A01 T02840165  RH  048%=      5-min Rain = 0
KLA1 051336Z 16007KT 28/17 A2994 RMK A01 T02840165  RH  049%=      5-min Rain = 0
KLA1 051337Z 15006KT 29/17 A2994 RMK A01 T02850166  RH  048%=      5-min Rain = 0
KLA1 051338Z 13006KT 29/17 A2994 RMK A01 T02860165  RH  048%=      5-min Rain = 0
KLA1 051339Z 13004KT 29/17 A2994 RMK A01 T02850165  RH  048%=      5-min Rain = 0
KLA1 051340Z 14004KT 28/17 A2994 RMK A01 T02840165  RH  048%=      5-min Rain = 0
KLA1 051341Z 15006KT 29/17 A2994 RMK A01 T02860165  RH  048%=      5-min Rain = 0
KLA1 051342Z 14006KT 29/17 A2994 RMK A01 T02870166  RH  048%=      5-min Rain = 0
KLA1 051343Z 14007KT 29/17 A2995 RMK A01 T02870166  RH  048%=      5-min Rain = 0
KLA1 051344Z 15008KT 29/17 A2995 RMK A01 T02880166  RH  048%=      5-min Rain = 0
KLA1 051345Z 14008KT 29/17 A2995 RMK A01 T02870166  RH  048%=      5-min Rain = 0
KLA1 051346Z 13007KT 29/17 A2995 RMK A01 T02870166  RH  048%=      5-min Rain = 0
KLA1 051347Z 13006KT 29/17 A2995 RMK A01 T02870166  RH  048%=      5-min Rain = 0
KLA1 051348Z 12008KT 29/17 A2995 RMK A01 T02870166  RH  048%=      5-min Rain = 0
KLA1 051349Z 13007KT 29/17 A2995 RMK A01 T02870166  RH  048%=      5-min Rain = 0
KLA1 051350Z 14007KT 29/17 A2994 RMK A01 T02870166  RH  048%=      5-min Rain = 0
KLA1 051351Z 13007G13KT 29/17 A2995 RMK A01 T02870166  RH  048%=      5-min Rain = 0
KLA1 051352Z 12010KT 29/17 A2995 RMK A01 T02880166  RH  048%=      5-min Rain = 0
KLA1 051353Z 12010KT 29/17 A2995 RMK A01 T02880167  RH  048%=      5-min Rain = 0
KLA1 051354Z 12012KT 29/17 A2995 RMK A01 T02880166  RH  048%=      5-min Rain = 0
KLA1 051355Z 12010KT 29/17 A2995 RMK A01 T02870166  RH  048%=      5-min Rain = 0
KLA1 051356Z 13009KT 29/17 A2995 RMK A01 T02870167  RH  048%=      5-min Rain = 0
KLA1 051357Z 13008KT 29/17 A2995 RMK A01 T02870166  RH  048%=      5-min Rain = 0
KLA1 051358Z 14011KT 29/17 A2995 RMK A01 T02880166  RH  048%=      5-min Rain = 0
KLA1 051359Z 13010KT 29/17 A2995 RMK A01 T02880165  RH  047%=      5-min Rain = 0
KLA1 051400Z 12008KT 29/17 A2995 RMK A01 T02890166  RH  047%=      5-min Rain = 0
KLA1 051401Z 12009KT 29/17 A2995 RMK A01 T02890166  RH  048%=      5-min Rain = 0
KLA1 051402Z 11009KT 29/17 A2995 RMK A01 T02890166  RH  047%=      5-min Rain = 0
KLA1 051403Z 13010KT 29/17 A2995 RMK A01 T02900166  RH  047%=      5-min Rain = 0
KLA1 051404Z 12010KT 29/17 A2995 RMK A01 T02900166  RH  047%=      5-min Rain = 0
KLA1 051405Z 13009KT 29/17 A2995 RMK A01 T02900166  RH  047%=      5-min Rain = 0
KLA1 051406Z 13008KT 29/17 A2995 RMK A01 T02890167  RH  047%=      5-min Rain = 0
KLA1 051407Z 13009KT 29/17 A2995 RMK A01 T02900166  RH  047%=      5-min Rain = 0
KLA1 051408Z 13007KT 29/17 A2995 RMK A01 T02910167  RH  047%=      5-min Rain = 0
KLA1 051409Z 14009KT 29/17 A2995 RMK A01 T02930167  RH  047%=      5-min Rain = 0
KLA1 051410Z 13008KT 29/17 A2995 RMK A01 T02930167  RH  047%=      5-min Rain = 0
KLA1 051411Z 13008KT 29/17 A2995 RMK A01 T02930167  RH  047%=      5-min Rain = 0
KLA1 051412Z 13008KT 29/17 A2995 RMK A01 T02930167  RH  047%=      5-min Rain = 0
KLA1 051413Z 13006KT 29/17 A2995 RMK A01 T02930167  RH  047%=      5-min Rain = 0
KLA1 051414Z 13007KT 29/17 A2995 RMK A01 T02940167  RH  046%=      5-min Rain = 0
KLA1 051415Z 15008KT 30/17 A2995 RMK A01 T02950167  RH  046%=      5-min Rain = 0
KLA1 051416Z 14008KT 30/17 A2995 RMK A01 T02950166  RH  046%=      5-min Rain = 0
KLA1 051417Z 15007KT 30/17 A2995 RMK A01 T02960167  RH  046%=      5-min Rain = 0
KLA1 051418Z 16008KT 30/17 A2995 RMK A01 T02970167  RH  046%=      5-min Rain = 0
KLA1 051419Z 15009KT 30/17 A2995 RMK A01 T02960166  RH  046%=      5-min Rain = 0
KLA1 051420Z 13006KT 30/17 A2995 RMK A01 T02950168  RH  046%=      5-min Rain = 0
KLA1 051421Z 13008KT 30/17 A2995 RMK A01 T02950167  RH  046%=      5-min Rain = 0
KLA1 051422Z 14006KT 30/17 A2995 RMK A01 T02960167  RH  046%=      5-min Rain = 0
KLA1 051423Z 15008KT 30/17 A2995 RMK A01 T02960167  RH  046%=      5-min Rain = 0
KLA1 051424Z 15006KT 30/17 A2995 RMK A01 T02960167  RH  046%=      5-min Rain = 0
KLA1 051425Z 13005KT 30/17 A2995 RMK A01 T02960168  RH  046%=      5-min Rain = 0
KLA1 051426Z 11007KT 30/17 A2995 RMK A01 T02960168  RH  046%=      5-min Rain = 0
KLA1 051427Z 11007KT 30/17 A2995 RMK A01 T02970168  RH  046%=      5-min Rain = 0
KLA1 051428Z 12007KT 30/17 A2995 RMK A01 T02970168  RH  046%=      5-min Rain = 0
KLA1 051429Z 12005KT 30/17 A2995 RMK A01 T02970168  RH  046%=      5-min Rain = 0
KLA1 051430Z 12005KT 30/17 A2995 RMK A01 T02970168  RH  046%=      5-min Rain = 0
KLA1 051431Z 13005KT 30/17 A2995 RMK A01 T02980168  RH  046%=      5-min Rain = 0
KLA1 051432Z 13005KT 30/17 A2995 RMK A01 T02990168  RH  045%=      5-min Rain = 0
KLA1 051433Z 13006KT 30/17 A2995 RMK A01 T03000168  RH  045%=      5-min Rain = 0
KLA1 051434Z 14006KT 30/17 A2995 RMK A01 T03010168  RH  045%=      5-min Rain = 0
KLA1 051435Z 13005KT 30/17 A2995 RMK A01 T03020168  RH  044%=      5-min Rain = 0
KLA1 051436Z 15005KT 30/17 A2995 RMK A01 T03030167  RH  044%=      5-min Rain = 0
KLA1 051437Z 13003KT 30/17 A2995 RMK A01 T03020169  RH  045%=      5-min Rain = 0
KLA1 051438Z 13004KT 30/17 A2995 RMK A01 T03020169  RH  045%=      5-min Rain = 0
KLA1 051439Z 11005KT 30/17 A2995 RMK A01 T03030168  RH  044%=      5-min Rain = 0
KLA1 051440Z 13002KT 30/17 A2995 RMK A01 T03030168  RH  044%=      5-min Rain = 0
KLA1 051441Z 14002KT 30/17 A2995 RMK A01 T03020169  RH  045%=      5-min Rain = 0
KLA1 051442Z 18004KT 30/17 A2995 RMK A01 T03020167  RH  044%=      5-min Rain = 0
KLA1 051443Z 16004KT 30/17 A2995 RMK A01 T03030167  RH  044%=      5-min Rain = 0
KLA1 051444Z 15002KT 30/17 A2995 RMK A01 T03030168  RH  044%=      5-min Rain = 0
KLA1 051445Z 11003KT 30/17 A2995 RMK A01 T03030169  RH  044%=      5-min Rain = 0
KLA1 051446Z 12004KT 30/17 A2995 RMK A01 T03030168  RH  044%=      5-min Rain = 0
KLA1 051447Z 14003KT 31/17 A2995 RMK A01 T03050166  RH  043%=      5-min Rain = 0
KLA1 051448Z 13005KT 31/17 A2995 RMK A01 T03060166  RH  043%=      5-min Rain = 0
KLA1 051449Z 16005KT 31/17 A2995 RMK A01 T03080168  RH  043%=      5-min Rain = 0
KLA1 051450Z 16003KT 31/17 A2995 RMK A01 T03110168  RH  042%=      5-min Rain = 0
KLA1 051451Z 15002KT 31/17 A2995 RMK A01 T03110167  RH  042%=      5-min Rain = 0
KLA1 051452Z 14000KT 31/17 A2995 RMK A01 T03110168  RH  042%=      5-min Rain = 0
KLA1 051453Z 24001KT 31/17 A2995 RMK A01 T03110167  RH  042%=      5-min Rain = 0
KLA1 051454Z 13001KT 31/17 A2995 RMK A01 T03140169  RH  042%=      5-min Rain = 0
KLA1 051455Z 17002KT 32/17 A2995 RMK A01 T03160168  RH  041%=      5-min Rain = 0
KLA1 051456Z 25001KT 32/17 A2996 RMK A01 T03150168  RH  041%=      5-min Rain = 0
KLA1 051457Z 27003KT 31/17 A2996 RMK A01 T03140168  RH  042%=      5-min Rain = 0
KLA1 051458Z 24003KT 31/17 A2996 RMK A01 T03140166  RH  041%=      5-min Rain = 0
KLA1 051459Z 22004KT 32/17 A2996 RMK A01 T03150165  RH  041%=      5-min Rain = 0
KLA1 051500Z 23004KT 32/17 A2996 RMK A01 T03150165  RH  041%=      5-min Rain = 0
KLA1 051501Z 22005KT 32/16 A2996 RMK A01 T03160164  RH  040%=      5-min Rain = 0
KLA1 051502Z 22006KT 32/16 A2995 RMK A01 T03150163  RH  040%=      5-min Rain = 0
KLA1 051503Z 22004KT 31/16 A2995 RMK A01 T03140163  RH  040%=      5-min Rain = 0
KLA1 051504Z 23004KT 31/16 A2995 RMK A01 T03140164  RH  040%=      5-min Rain = 0
KLA1 051505Z 24004KT 31/16 A2995 RMK A01 T03140164  RH  041%=      5-min Rain = 0
KLA1 051506Z 24005KT 31/16 A2995 RMK A01 T03140164  RH  040%=      5-min Rain = 0
KLA1 051507Z 22005KT 32/16 A2995 RMK A01 T03150164  RH  040%=      5-min Rain = 0
KLA1 051508Z 23006KT 32/16 A2995 RMK A01 T03150164  RH  040%=      5-min Rain = 0
KLA1 051509Z 24004KT 32/16 A2995 RMK A01 T03160163  RH  040%=      5-min Rain = 0
KLA1 051510Z 23004KT 32/17 A2995 RMK A01 T03150165  RH  040%=      5-min Rain = 0
KLA1 051511Z 22004KT 31/16 A2995 RMK A01 T03140164  RH  041%=      5-min Rain = 0
KLA1 051512Z 21004KT 31/16 A2995 RMK A01 T03140164  RH  041%=      5-min Rain = 0
KLA1 051513Z 21002KT 31/16 A2995 RMK A01 T03140163  RH  040%=      5-min Rain = 0
KLA1 051514Z 21001KT 31/16 A2995 RMK A01 T03140164  RH  041%=      5-min Rain = 0
KLA1 051515Z 21004KT 32/16 A2995 RMK A01 T03150164  RH  040%=      5-min Rain = 0
KLA1 051516Z 17005KT 32/17 A2995 RMK A01 T03170165  RH  040%=      5-min Rain = 0
KLA1 051517Z 15005KT 32/16 A2995 RMK A01 T03180162  RH  039%=      5-min Rain = 0
KLA1 051518Z 15005KT 32/16 A2995 RMK A01 T03190163  RH  039%=      5-min Rain = 0
KLA1 051519Z 17003KT 32/16 A2995 RMK A01 T03200162  RH  039%=      5-min Rain = 0
KLA1 051520Z 19001KT 32/16 A2994 RMK A01 T03190162  RH  039%=      5-min Rain = 0
KLA1 051521Z 18002KT 32/16 A2994 RMK A01 T03190163  RH  039%=      5-min Rain = 0
KLA1 051522Z 17001KT 32/17 A2994 RMK A01 T03190165  RH  040%=      5-min Rain = 0
KLA1 051523Z 15000KT 32/16 A2994 RMK A01 T03200164  RH  039%=      5-min Rain = 0
KLA1 051524Z 17001G7KT 32/16 A2994 RMK A01 T03210164  RH  039%=      5-min Rain = 0
KLA1 051525Z 17005KT 32/17 A2994 RMK A01 T03220165  RH  039%=      5-min Rain = 0
KLA1 051526Z 15007KT 33/17 A2994 RMK A01 T03250167  RH  039%=      5-min Rain = 0
KLA1 051527Z 14006KT 33/16 A2994 RMK A01 T03270164  RH  038%=      5-min Rain = 0
KLA1 051528Z 15003KT 33/17 A2994 RMK A01 T03250165  RH  038%=      5-min Rain = 0
KLA1 051529Z 18006KT 32/16 A2994 RMK A01 T03240162  RH  038%=      5-min Rain = 0
KLA1 051530Z 18004KT 32/16 A2994 RMK A01 T03230160  RH  038%=      5-min Rain = 0
KLA1 051531Z 18007KT 32/16 A2994 RMK A01 T03230162  RH  038%=      5-min Rain = 0
KLA1 051532Z 17008KT 33/16 A2994 RMK A01 T03260162  RH  037%=      5-min Rain = 0
KLA1 051533Z 18006KT 33/16 A2994 RMK A01 T03280160  RH  037%=      5-min Rain = 0
KLA1 051534Z 17007KT 33/16 A2994 RMK A01 T03270161  RH  037%=      5-min Rain = 0
KLA1 051535Z 17007KT 33/16 A2994 RMK A01 T03280160  RH  036%=      5-min Rain = 0
KLA1 051536Z 15006KT 33/16 A2994 RMK A01 T03270161  RH  037%=      5-min Rain = 0
KLA1 051537Z 16003KT 33/16 A2994 RMK A01 T03270162  RH  037%=      5-min Rain = 0
KLA1 051538Z 18004KT 33/16 A2994 RMK A01 T03280161  RH  037%=      5-min Rain = 0
KLA1 051539Z 17005KT 33/16 A2994 RMK A01 T03280161  RH  037%=      5-min Rain = 0
KLA1 051540Z 16004KT 33/16 A2994 RMK A01 T03270161  RH  037%=      5-min Rain = 0
KLA1 051541Z 16004KT 33/16 A2994 RMK A01 T03270160  RH  037%=      5-min Rain = 0
KLA1 051542Z 15002KT 33/16 A2994 RMK A01 T03270160  RH  037%=      5-min Rain = 0
KLA1 051543Z 23004KT 33/16 A2994 RMK A01 T03270161  RH  037%=      5-min Rain = 0
KLA1 051544Z 22004KT 33/16 A2994 RMK A01 T03290162  RH  037%=      5-min Rain = 0
KLA1 051545Z 21004KT 33/16 A2994 RMK A01 T03300162  RH  037%=      5-min Rain = 0
KLA1 051546Z 21005KT 33/16 A2994 RMK A01 T03300163  RH  037%=      5-min Rain = 0
KLA1 051547Z 20006KT 33/16 A2994 RMK A01 T03300162  RH  037%=      5-min Rain = 0
KLA1 051548Z 19004KT 33/16 A2994 RMK A01 T03310162  RH  036%=      5-min Rain = 0
KLA1 051549Z 18001G7KT 33/16 A2994 RMK A01 T03300160  RH  036%=      5-min Rain = 0
KLA1 051550Z 16004KT 33/16 A2994 RMK A01 T03300161  RH  036%=      5-min Rain = 0
KLA1 051551Z 16003KT 33/16 A2994 RMK A01 T03300161  RH  036%=      5-min Rain = 0
KLA1 051552Z 21002KT 33/16 A2994 RMK A01 T03290161  RH  036%=      5-min Rain = 0
KLA1 051553Z 21002KT 33/16 A2994 RMK A01 T03280160  RH  037%=      5-min Rain = 0
KLA1 051554Z 15002KT 33/16 A2994 RMK A01 T03280161  RH  037%=      5-min Rain = 0
KLA1 051555Z 16002KT 33/16 A2994 RMK A01 T03290162  RH  037%=      5-min Rain = 0
KLA1 051556Z 15005KT 33/16 A2994 RMK A01 T03310163  RH  037%=      5-min Rain = 0
KLA1 051557Z 16006KT 33/16 A2994 RMK A01 T03320161  RH  036%=      5-min Rain = 0
KLA1 051558Z 16003KT 33/16 A2994 RMK A01 T03310160  RH  036%=      5-min Rain = 0
KLA1 051559Z 20003KT 33/16 A2994 RMK A01 T03320159  RH  036%=      5-min Rain = 0
KLA1 051600Z 20003KT 33/16 A2994 RMK A01 T03320158  RH  035%=      5-min Rain = 0
KLA1 051601Z 20006KT 33/16 A2994 RMK A01 T03330159  RH  035%=      5-min Rain = 0
KLA1 051602Z 20003KT 33/16 A2994 RMK A01 T03330160  RH  035%=      5-min Rain = 0
KLA1 051603Z 19003KT 33/16 A2994 RMK A01 T03330160  RH  036%=      5-min Rain = 0
KLA1 051604Z 19003KT 33/16 A2994 RMK A01 T03330161  RH  036%=      5-min Rain = 0
KLA1 051605Z 18005KT 33/16 A2994 RMK A01 T03330161  RH  036%=      5-min Rain = 0
KLA1 051606Z 20005KT 33/16 A2994 RMK A01 T03340162  RH  036%=      5-min Rain = 0
KLA1 051607Z 21004KT 33/16 A2994 RMK A01 T03340161  RH  036%=      5-min Rain = 0
KLA1 051608Z 21003KT 33/16 A2994 RMK A01 T03340162  RH  036%=      5-min Rain = 0
KLA1 051609Z 21003KT 34/16 A2994 RMK A01 T03360163  RH  035%=      5-min Rain = 0
KLA1 051610Z 16004KT 34/16 A2994 RMK A01 T03380163  RH  035%=      5-min Rain = 0
KLA1 051611Z 17004KT 34/16 A2994 RMK A01 T03400162  RH  035%=      5-min Rain = 0
KLA1 051612Z 17004KT 34/16 A2994 RMK A01 T03410162  RH  034%=      5-min Rain = 0
KLA1 051613Z 16002KT 34/16 A2994 RMK A01 T03410161  RH  034%=      5-min Rain = 0
KLA1 051614Z 08003KT 34/16 A2994 RMK A01 T03410161  RH  034%=      5-min Rain = 0
KLA1 051615Z 11003G8KT 34/16 A2994 RMK A01 T03410160  RH  034%=      5-min Rain = 0
KLA1 051616Z 13006KT 34/16 A2994 RMK A01 T03430160  RH  033%=      5-min Rain = 0
KLA1 051617Z 14005KT 34/16 A2994 RMK A01 T03430158  RH  033%=      5-min Rain = 0
KLA1 051618Z 14003KT 34/16 A2994 RMK A01 T03400157  RH  034%=      5-min Rain = 0
KLA1 051619Z 18003KT 34/16 A2994 RMK A01 T03410158  RH  033%=      5-min Rain = 0
KLA1 051620Z 15004KT 34/16 A2994 RMK A01 T03420156  RH  033%=      5-min Rain = 0
KLA1 051621Z 15006KT 34/16 A2994 RMK A01 T03430156  RH  033%=      5-min Rain = 0
KLA1 051622Z 14004KT 35/16 A2994 RMK A01 T03460155  RH  032%=      5-min Rain = 0
KLA1 051623Z 14005KT 35/16 A2993 RMK A01 T03480156  RH  032%=      5-min Rain = 0
KLA1 051624Z 16006G11KT 35/16 A2993 RMK A01 T03490155  RH  032%=      5-min Rain = 0
KLA1 051625Z 14009KT 35/16 A2993 RMK A01 T03490155  RH  032%=      5-min Rain = 0
KLA1 051626Z 13007KT 35/15 A2993 RMK A01 T03470151  RH  031%=      5-min Rain = 0
KLA1 051627Z 15008KT 35/15 A2993 RMK A01 T03460150  RH  031%=      5-min Rain = 0
KLA1 051628Z 14008KT 35/15 A2993 RMK A01 T03460153  RH  031%=      5-min Rain = 0
KLA1 051629Z 13006KT 35/15 A2993 RMK A01 T03460151  RH  031%=      5-min Rain = 0
KLA1 051630Z 13007KT 35/15 A2993 RMK A01 T03450151  RH  031%=      5-min Rain = 0
KLA1 051631Z 15008KT 35/15 A2993 RMK A01 T03460153  RH  032%=      5-min Rain = 0
KLA1 051632Z 14007KT 35/15 A2993 RMK A01 T03470153  RH  031%=      5-min Rain = 0
KLA1 051633Z 14008KT 35/15 A2993 RMK A01 T03470152  RH  031%=      5-min Rain = 0
KLA1 051634Z 16006KT 35/15 A2993 RMK A01 T03480152  RH  031%=      5-min Rain = 0
KLA1 051635Z 14009KT 35/16 A2993 RMK A01 T03470155  RH  032%=      5-min Rain = 0
KLA1 051636Z 12007KT 35/16 A2993 RMK A01 T03480155  RH  032%=      5-min Rain = 0
KLA1 051637Z 11006KT 35/15 A2993 RMK A01 T03490153  RH  031%=      5-min Rain = 0
KLA1 051638Z 09004KT 35/15 A2993 RMK A01 T03490153  RH  031%=      5-min Rain = 0
KLA1 051639Z 11005KT 35/15 A2993 RMK A01 T03490154  RH  031%=      5-min Rain = 0
KLA1 051640Z 13005KT 35/16 A2993 RMK A01 T03480155  RH  032%=      5-min Rain = 0
KLA1 051641Z 13006G11KT 35/16 A2993 RMK A01 T03490159  RH  032%=      5-min Rain = 0
KLA1 051642Z 17007KT 35/16 A2993 RMK A01 T03520159  RH  032%=      5-min Rain = 0
KLA1 051643Z 18003KT 35/16 A2993 RMK A01 T03480157  RH  032%=      5-min Rain = 0
KLA1 051644Z 15001KT 35/16 A2993 RMK A01 T03450158  RH  033%=      5-min Rain = 0
KLA1 051645Z 14005KT 35/16 A2993 RMK A01 T03450160  RH  033%=      5-min Rain = 0
KLA1 051646Z 15007KT 35/16 A2993 RMK A01 T03500157  RH  032%=      5-min Rain = 0
KLA1 051647Z 14008KT 36/16 A2993 RMK A01 T03570157  RH  030%=      5-min Rain = 0
KLA1 051648Z 14009KT 36/16 A2993 RMK A01 T03600157  RH  030%=      5-min Rain = 0
KLA1 051649Z 14009KT 36/16 A2993 RMK A01 T03610156  RH  030%=      5-min Rain = 0
KLA1 051650Z 14006KT 36/15 A2993 RMK A01 T03610154  RH  029%=      5-min Rain = 0
KLA1 051651Z 13004KT 36/15 A2993 RMK A01 T03590153  RH  029%=      5-min Rain = 0
KLA1 051652Z 13006KT 36/15 A2993 RMK A01 T03570154  RH  030%=      5-min Rain = 0
KLA1 051653Z 13008KT 36/15 A2993 RMK A01 T03570154  RH  030%=      5-min Rain = 0
KLA1 051654Z 12004KT 36/15 A2993 RMK A01 T03550151  RH  030%=      5-min Rain = 0
KLA1 051655Z 13008KT 35/15 A2993 RMK A01 T03540154  RH  031%=      5-min Rain = 0
KLA1 051656Z 13007KT 35/15 A2993 RMK A01 T03540154  RH  030%=      5-min Rain = 0
KLA1 051657Z 09005KT 35/15 A2993 RMK A01 T03530154  RH  031%=      5-min Rain = 0
KLA1 051658Z 13005KT 35/15 A2993 RMK A01 T03530154  RH  031%=      5-min Rain = 0
KLA1 051659Z 13005KT 35/15 A2993 RMK A01 T03530154  RH  031%=      5-min Rain = 0
KLA1 051700Z 11006KT 36/16 A2993 RMK A01 T03550155  RH  030%=      5-min Rain = 0
KLA1 051701Z 13006KT 36/16 A2993 RMK A01 T03580156  RH  030%=      5-min Rain = 0
KLA1 051702Z 13005KT 36/15 A2993 RMK A01 T03600153  RH  029%=      5-min Rain = 0
KLA1 051703Z 13005KT 36/15 A2993 RMK A01 T03570154  RH  030%=      5-min Rain = 0
KLA1 051704Z 15005KT 36/15 A2993 RMK A01 T03570154  RH  030%=      5-min Rain = 0
KLA1 051705Z 14004KT 36/16 A2993 RMK A01 T03570155  RH  030%=      5-min Rain = 0
KLA1 051706Z 13002KT 36/16 A2993 RMK A01 T03560155  RH  030%=      5-min Rain = 0
KLA1 051707Z 13006KT 36/15 A2993 RMK A01 T03570154  RH  030%=      5-min Rain = 0
KLA1 051708Z 13010KT 36/15 A2993 RMK A01 T03590151  RH  029%=      5-min Rain = 0
KLA1 051709Z 13009KT 36/15 A2993 RMK A01 T03620151  RH  029%=      5-min Rain = 0
KLA1 051710Z 12010KT 36/15 A2993 RMK A01 T03630150  RH  028%=      5-min Rain = 0
KLA1 051711Z 13007G12KT 36/15 A2993 RMK A01 T03610147  RH  028%=      5-min Rain = 0
KLA1 051712Z 11004KT 36/15 A2993 RMK A01 T03590147  RH  028%=      5-min Rain = 0
KLA1 051713Z 11006KT 36/15 A2993 RMK A01 T03580148  RH  029%=      5-min Rain = 0
KLA1 051714Z 12007KT 36/15 A2993 RMK A01 T03620151  RH  029%=      5-min Rain = 0
KLA1 051715Z 11005KT 37/15 A2993 RMK A01 T03680153  RH  028%=      5-min Rain = 0
KLA1 051716Z 13006KT 37/15 A2993 RMK A01 T03700150  RH  027%=      5-min Rain = 0
KLA1 051717Z 13006KT 37/15 A2993 RMK A01 T03670151  RH  028%=      5-min Rain = 0
KLA1 051718Z 14005KT 37/15 A2993 RMK A01 T03660152  RH  028%=      5-min Rain = 0
KLA1 051719Z 13008KT 37/15 A2993 RMK A01 T03680154  RH  028%=      5-min Rain = 0
KLA1 051720Z 17006KT 37/15 A2993 RMK A01 T03680153  RH  028%=      5-min Rain = 0
KLA1 051721Z 13005G11KT 37/15 A2993 RMK A01 T03650154  RH  028%=      5-min Rain = 0
KLA1 051722Z 12008KT 37/15 A2993 RMK A01 T03650152  RH  028%=      5-min Rain = 0
KLA1 051723Z 10007KT 37/15 A2993 RMK A01 T03650151  RH  028%=      5-min Rain = 0
KLA1 051724Z 11005KT 36/15 A2993 RMK A01 T03640149  RH  028%=      5-min Rain = 0
KLA1 051725Z 12006KT 36/15 A2993 RMK A01 T03630150  RH  028%=      5-min Rain = 0
KLA1 051726Z 10009G14KT 36/15 A2992 RMK A01 T03640151  RH  028%=      5-min Rain = 0
KLA1 051727Z 10009KT 37/15 A2992 RMK A01 T03670151  RH  028%=      5-min Rain = 0
KLA1 051728Z 11005KT 37/15 A2992 RMK A01 T03660151  RH  028%=      5-min Rain = 0
KLA1 051729Z 14004KT 37/15 A2992 RMK A01 T03660152  RH  028%=      5-min Rain = 0
KLA1 051730Z 16005KT 37/15 A2992 RMK A01 T03680152  RH  028%=      5-min Rain = 0
KLA1 051731Z 13006KT 37/15 A2992 RMK A01 T03680152  RH  028%=      5-min Rain = 0
KLA1 051732Z 14008KT 37/15 A2992 RMK A01 T03710151  RH  027%=      5-min Rain = 0
KLA1 051733Z 11007KT 37/15 A2992 RMK A01 T03710149  RH  027%=      5-min Rain = 0
KLA1 051734Z 11004KT 37/15 A2992 RMK A01 T03670149  RH  028%=      5-min Rain = 0
KLA1 051735Z 14003KT 36/15 A2992 RMK A01 T03640150  RH  028%=      5-min Rain = 0
KLA1 051736Z 11008KT 37/15 A2992 RMK A01 T03670148  RH  027%=      5-min Rain = 0
KLA1 051737Z 13008G13KT 37/15 A2992 RMK A01 T03700148  RH  027%=      5-min Rain = 0
KLA1 051738Z 12009KT 37/15 A2992 RMK A01 T03730148  RH  026%=      5-min Rain = 0
KLA1 051739Z 15007KT 37/15 A2992 RMK A01 T03740148  RH  026%=      5-min Rain = 0
KLA1 051740Z 16006KT 37/15 A2992 RMK A01 T03730148  RH  026%=      5-min Rain = 0
KLA1 051741Z 13003KT 37/14 A2992 RMK A01 T03720143  RH  026%=      5-min Rain = 0
KLA1 051742Z 13008KT 37/15 A2992 RMK A01 T03710145  RH  026%=      5-min Rain = 0
KLA1 051743Z 13008KT 37/15 A2992 RMK A01 T03700147  RH  027%=      5-min Rain = 0
KLA1 051744Z 17004KT 37/15 A2992 RMK A01 T03710151  RH  027%=      5-min Rain = 0
KLA1 051745Z 12003G8KT 37/15 A2992 RMK A01 T03720151  RH  027%=      5-min Rain = 0
KLA1 051746Z 12008KT 37/15 A2992 RMK A01 T03710150  RH  027%=      5-min Rain = 0
KLA1 051747Z 15009KT 37/15 A2992 RMK A01 T03730150  RH  027%=      5-min Rain = 0
KLA1 051748Z 17006KT 38/15 A2992 RMK A01 T03750151  RH  027%=      5-min Rain = 0
KLA1 051749Z 15009KT 37/15 A2992 RMK A01 T03740152  RH  027%=      5-min Rain = 0
KLA1 051750Z 16004KT 37/15 A2992 RMK A01 T03740149  RH  026%=      5-min Rain = 0
KLA1 051751Z 14006KT 37/14 A2992 RMK A01 T03710143  RH  026%=      5-min Rain = 0
KLA1 051752Z 14010KT 37/15 A2992 RMK A01 T03730146  RH  026%=      5-min Rain = 0
KLA1 051753Z 14010KT 38/15 A2992 RMK A01 T03760146  RH  026%=      5-min Rain = 0
KLA1 051754Z 14008KT 38/15 A2992 RMK A01 T03750146  RH  026%=      5-min Rain = 0
KLA1 051755Z 13006KT 37/15 A2992 RMK A01 T03730147  RH  026%=      5-min Rain = 0
KLA1 051756Z 12010KT 37/14 A2992 RMK A01 T03720143  RH  026%=      5-min Rain = 0
KLA1 051757Z 12005KT 37/14 A2992 RMK A01 T03730142  RH  025%=      5-min Rain = 0
KLA1 051758Z 12001KT 37/14 A2992 RMK A01 T03730142  RH  025%=      5-min Rain = 0
KLA1 051759Z 17003KT 37/14 A2992 RMK A01 T03720141  RH  025%=      5-min Rain = 0
KLA1 051800Z 10006KT 37/14 A2992 RMK A01 T03740140  RH  025%=      5-min Rain = 0
KLA1 051801Z 08006KT 38/14 A2992 RMK A01 T03760137  RH  024%=      5-min Rain = 0
KLA1 051802Z 13006KT 38/14 A2992 RMK A01 T03760136  RH  024%=      5-min Rain = 0
KLA1 051803Z 16008KT 38/14 A2992 RMK A01 T03750137  RH  024%=      5-min Rain = 0
KLA1 051804Z 14007KT 38/14 A2992 RMK A01 T03750140  RH  025%=      5-min Rain = 0
KLA1 051805Z 14009KT 38/14 A2992 RMK A01 T03800136  RH  023%=      5-min Rain = 0
KLA1 051806Z 13006KT 38/13 A2992 RMK A01 T03810133  RH  023%=      5-min Rain = 0
KLA1 051807Z 12007KT 38/13 A2992 RMK A01 T03790133  RH  023%=      5-min Rain = 0
KLA1 051808Z 13007KT 38/14 A2992 RMK A01 T03770139  RH  024%=      5-min Rain = 0
KLA1 051809Z 14010KT 38/14 A2992 RMK A01 T03770142  RH  025%=      5-min Rain = 0
KLA1 051810Z 16006KT 38/14 A2991 RMK A01 T03780143  RH  025%=      5-min Rain = 0
KLA1 051811Z 12007KT 38/14 A2991 RMK A01 T03770140  RH  024%=      5-min Rain = 0
KLA1 051812Z 12010G15KT 38/14 A2991 RMK A01 T03760137  RH  024%=      5-min Rain = 0
KLA1 051813Z 12013KT 38/14 A2991 RMK A01 T03760136  RH  024%=      5-min Rain = 0
KLA1 051814Z 10008KT 38/13 A2991 RMK A01 T03780134  RH  023%=      5-min Rain = 0
KLA1 051815Z 11011KT 38/13 A2991 RMK A01 T03800131  RH  023%=      5-min Rain = 0
KLA1 051816Z 13010KT 38/13 A2991 RMK A01 T03810132  RH  023%=      5-min Rain = 0
KLA1 051817Z 11008KT 38/14 A2991 RMK A01 T03800135  RH  023%=      5-min Rain = 0
KLA1 051818Z 12008KT 38/13 A2991 RMK A01 T03800134  RH  023%=      5-min Rain = 0
KLA1 051819Z 13007KT 38/13 A2991 RMK A01 T03800134  RH  023%=      5-min Rain = 0
KLA1 051820Z 14009KT 38/13 A2991 RMK A01 T03790134  RH  023%=      5-min Rain = 0
KLA1 051821Z 16009KT 38/14 A2991 RMK A01 T03810137  RH  024%=      5-min Rain = 0
KLA1 051822Z 15009KT 38/14 A2991 RMK A01 T03810141  RH  024%=      5-min Rain = 0
KLA1 051823Z 14009KT 38/14 A2991 RMK A01 T03810135  RH  023%=      5-min Rain = 0
KLA1 051824Z 13006KT 38/13 A2991 RMK A01 T03790132  RH  023%=      5-min Rain = 0
KLA1 051825Z 17003KT 38/13 A2991 RMK A01 T03770130  RH  023%=      5-min Rain = 0
KLA1 051826Z 18003KT 38/13 A299 RMK A01 T03760131  RH  023%=      5-min Rain = 0
KLA1 051827Z 21003KT 38/14 A299 RMK A01 T03760135  RH  024%=      5-min Rain = 0
KLA1 051828Z 14006KT 38/14 A299 RMK A01 T03810138  RH  024%=      5-min Rain = 0
KLA1 051829Z 15004KT 39/14 A299 RMK A01 T03860137  RH  023%=      5-min Rain = 0
KLA1 051830Z 13004KT 39/13 A299 RMK A01 T03880133  RH  022%=      5-min Rain = 0
KLA1 051831Z 15011G18KT 39/14 A299 RMK A01 T03870135  RH  022%=      5-min Rain = 0
KLA1 051832Z 14014KT 39/14 A299 RMK A01 T03860138  RH  023%=      5-min Rain = 0
KLA1 051833Z 13014KT 39/14 A299 RMK A01 T03850135  RH  023%=      5-min Rain = 0
KLA1 051834Z 14010KT 39/14 A299 RMK A01 T03850136  RH  023%=      5-min Rain = 0
KLA1 051835Z 14007KT 38/14 A299 RMK A01 T03830138  RH  023%=      5-min Rain = 0
KLA1 051836Z 15007KT 38/14 A299 RMK A01 T03820140  RH  024%=      5-min Rain = 0
KLA1 051837Z 14008KT 38/14 A299 RMK A01 T03830138  RH  023%=      5-min Rain = 0
KLA1 051838Z 12007KT 38/13 A299 RMK A01 T03820134  RH  023%=      5-min Rain = 0
KLA1 051839Z 12010KT 38/13 A299 RMK A01 T03840133  RH  023%=      5-min Rain = 0
KLA1 051840Z 14015KT 39/13 A299 RMK A01 T03860132  RH  022%=      5-min Rain = 0
KLA1 051841Z 14014KT 39/13 A299 RMK A01 T03880131  RH  022%=      5-min Rain = 0
KLA1 051842Z 13008KT 39/13 A299 RMK A01 T03880126  RH  021%=      5-min Rain = 0
KLA1 051843Z 14010KT 39/13 A299 RMK A01 T03850127  RH  022%=      5-min Rain = 0
KLA1 051844Z 15010KT 39/13 A299 RMK A01 T03860128  RH  022%=      5-min Rain = 0
KLA1 051845Z 14011G16KT 39/13 A299 RMK A01 T03870130  RH  022%=      5-min Rain = 0
KLA1 051846Z 14011KT 39/13 A299 RMK A01 T03890129  RH  021%=      5-min Rain = 0
KLA1 051847Z 12007KT 39/13 A299 RMK A01 T03880129  RH  021%=      5-min Rain = 0
KLA1 051848Z 09004KT 39/13 A299 RMK A01 T03870129  RH  022%=      5-min Rain = 0
KLA1 051849Z 09003KT 38/13 A299 RMK A01 T03830126  RH  022%=      5-min Rain = 0
KLA1 051850Z 09004KT 38/13 A2989 RMK A01 T03810126  RH  022%=      5-min Rain = 0
KLA1 051851Z 14004KT 38/13 A2989 RMK A01 T03790126  RH  022%=      5-min Rain = 0
KLA1 051852Z 14006KT 38/13 A2989 RMK A01 T03810127  RH  022%=      5-min Rain = 0
KLA1 051853Z 14009G14KT 38/13 A2989 RMK A01 T03840125  RH  021%=      5-min Rain = 0
KLA1 051854Z 15007KT 39/12 A2989 RMK A01 T03880124  RH  021%=      5-min Rain = 0
KLA1 051855Z 17010G15KT 39/12 A2989 RMK A01 T03910124  RH  021%=      5-min Rain = 0
KLA1 051856Z 15016KT 39/12 A2989 RMK A01 T03940124  RH  020%=      5-min Rain = 0
KLA1 051857Z 15013KT 39/12 A2989 RMK A01 T03940119  RH  019%=      5-min Rain = 0
KLA1 051858Z 17010KT 39/12 A2989 RMK A01 T03930121  RH  020%=      5-min Rain = 0
KLA1 051859Z 16008KT 39/12 A2989 RMK A01 T03890120  RH  020%=      5-min Rain = 0
KLA1 051900Z 14008KT 39/12 A2989 RMK A01 T03860122  RH  021%=      5-min Rain = 0
KLA1 051901Z 15010G18KT 39/12 A2989 RMK A01 T03890124  RH  021%=      5-min Rain = 0
KLA1 051902Z 15013G18KT 39/12 A2989 RMK A01 T03920121  RH  020%=      5-min Rain = 0
KLA1 051903Z 15010KT 39/12 A2989 RMK A01 T03900120  RH  020%=      5-min Rain = 0
KLA1 051904Z 16011KT 39/12 A2989 RMK A01 T03880115  RH  020%=      5-min Rain = 0
KLA1 051905Z 18006KT 39/11 A2989 RMK A01 T03870112  RH  019%=      5-min Rain = 0
KLA1 051906Z 19010KT 39/11 A2989 RMK A01 T03860113  RH  020%=      5-min Rain = 0
KLA1 051907Z 18009KT 39/12 A2989 RMK A01 T03870116  RH  020%=      5-min Rain = 0
KLA1 051908Z 18009KT 39/12 A2989 RMK A01 T03900117  RH  020%=      5-min Rain = 0
KLA1 051909Z 19008KT 39/12 A2989 RMK A01 T03890115  RH  019%=      5-min Rain = 0
KLA1 051910Z 20006KT 39/12 A2989 RMK A01 T03880116  RH  020%=      5-min Rain = 0
KLA1 051911Z 18009KT 39/12 A2989 RMK A01 T03890116  RH  020%=      5-min Rain = 0
KLA1 051912Z 17008KT 39/11 A2989 RMK A01 T03890106  RH  018%=      5-min Rain = 0
KLA1 051913Z 17005KT 39/10 A2988 RMK A01 T03890104  RH  018%=      5-min Rain = 0
KLA1 051914Z 14012G17KT 39/11 A2989 RMK A01 T03890114  RH  019%=      5-min Rain = 0
KLA1 051915Z 14012KT 39/12 A2989 RMK A01 T03900119  RH  020%=      5-min Rain = 0
KLA1 051916Z 14009KT 39/12 A2989 RMK A01 T03910119  RH  020%=      5-min Rain = 0
KLA1 051917Z 15008KT 39/12 A2989 RMK A01 T03910118  RH  020%=      5-min Rain = 0
KLA1 051918Z 15008KT 39/12 A2988 RMK A01 T03910122  RH  020%=      5-min Rain = 0
KLA1 051919Z 13007KT 39/13 A2988 RMK A01 T03910125  RH  021%=      5-min Rain = 0
KLA1 051920Z 13010KT 39/12 A2988 RMK A01 T03900123  RH  020%=      5-min Rain = 0
KLA1 051921Z 17013KT 39/12 A2988 RMK A01 T03910115  RH  019%=      5-min Rain = 0
KLA1 051922Z 16012KT 39/12 A2988 RMK A01 T03930118  RH  019%=      5-min Rain = 0
KLA1 051923Z 16010KT 40/12 A2988 RMK A01 T03950118  RH  019%=      5-min Rain = 0
KLA1 051924Z 13007KT 39/12 A2988 RMK A01 T03920118  RH  020%=      5-min Rain = 0
KLA1 051925Z 14008KT 39/12 A2988 RMK A01 T03900118  RH  020%=      5-min Rain = 0
KLA1 051926Z 13008KT 39/11 A2988 RMK A01 T03900113  RH  019%=      5-min Rain = 0
KLA1 051927Z 13006KT 39/11 A2988 RMK A01 T03900108  RH  019%=      5-min Rain = 0
KLA1 051928Z 20004KT 39/11 A2988 RMK A01 T03900109  RH  019%=      5-min Rain = 0
KLA1 051929Z 18004KT 39/11 A2988 RMK A01 T03920109  RH  018%=      5-min Rain = 0
KLA1 051930Z 16007KT 39/11 A2988 RMK A01 T03930109  RH  018%=      5-min Rain = 0
KLA1 051931Z 16012KT 39/12 A2988 RMK A01 T03940117  RH  019%=      5-min Rain = 0
KLA1 051932Z 17013KT 40/12 A2988 RMK A01 T03960122  RH  020%=      5-min Rain = 0
KLA1 051933Z 17012KT 40/12 A2988 RMK A01 T03960122  RH  020%=      5-min Rain = 0
KLA1 051934Z 16010G16KT 39/12 A2988 RMK A01 T03940123  RH  020%=      5-min Rain = 0
KLA1 051935Z 16009KT 39/12 A2988 RMK A01 T03940123  RH  020%=      5-min Rain = 0
KLA1 051936Z 18007KT 39/12 A2988 RMK A01 T03930122  RH  020%=      5-min Rain = 0
KLA1 051937Z 13006KT 39/12 A2988 RMK A01 T03890123  RH  021%=      5-min Rain = 0
KLA1 051938Z 16006KT 39/12 A2988 RMK A01 T03890124  RH  021%=      5-min Rain = 0
KLA1 051939Z 15009KT 39/12 A2988 RMK A01 T03930124  RH  020%=      5-min Rain = 0
KLA1 051940Z 14009KT 39/12 A2987 RMK A01 T03940120  RH  020%=      5-min Rain = 0
KLA1 051941Z 14012KT 39/12 A2988 RMK A01 T03930121  RH  020%=      5-min Rain = 0
KLA1 051942Z 14010KT 39/12 A2987 RMK A01 T03940121  RH  020%=      5-min Rain = 0
KLA1 051943Z 13009KT 39/12 A2987 RMK A01 T03940120  RH  020%=      5-min Rain = 0
KLA1 051944Z 13007KT 39/12 A2987 RMK A01 T03900120  RH  020%=      5-min Rain = 0
KLA1 051945Z 13005KT 39/12 A2987 RMK A01 T03890120  RH  020%=      5-min Rain = 0
KLA1 051946Z 16005G12KT 39/12 A2987 RMK A01 T03890120  RH  020%=      5-min Rain = 0
KLA1 051947Z 16012KT 39/12 A2987 RMK A01 T03920123  RH  020%=      5-min Rain = 0
KLA1 051948Z 16012KT 40/12 A2987 RMK A01 T03950122  RH  020%=      5-min Rain = 0
KLA1 051949Z 15009KT 40/12 A2987 RMK A01 T03960122  RH  020%=      5-min Rain = 0
KLA1 051950Z 16006KT 40/12 A2987 RMK A01 T03960120  RH  019%=      5-min Rain = 0
KLA1 051951Z 17004G9KT 39/12 A2987 RMK A01 T03930120  RH  020%=      5-min Rain = 0
KLA1 051952Z 15011G18KT 39/12 A2987 RMK A01 T03920120  RH  020%=      5-min Rain = 0
KLA1 051953Z 14012KT 39/12 A2987 RMK A01 T03940119  RH  020%=      5-min Rain = 0
KLA1 051954Z 14011KT 40/12 A2987 RMK A01 T03950120  RH  019%=      5-min Rain = 0
KLA1 051955Z 13009KT 40/12 A2987 RMK A01 T03950120  RH  020%=      5-min Rain = 0
KLA1 051956Z 14010G15KT 40/12 A2987 RMK A01 T03950120  RH  020%=      5-min Rain = 0
KLA1 051957Z 17010KT 40/12 A2987 RMK A01 T03960119  RH  019%=      5-min Rain = 0
KLA1 051958Z 20004KT 39/12 A2987 RMK A01 T03930118  RH  019%=      5-min Rain = 0
KLA1 051959Z 18007G13KT 39/12 A2987 RMK A01 T03920118  RH  019%=      5-min Rain = 0
KLA1 052000Z 21007KT 39/12 A2986 RMK A01 T03910116  RH  019%=      5-min Rain = 0
KLA1 052001Z 21006KT 39/12 A2986 RMK A01 T03910116  RH  019%=      5-min Rain = 0
KLA1 052002Z 21012KT 39/12 A2986 RMK A01 T03920116  RH  019%=      5-min Rain = 0
KLA1 052003Z 20013KT 40/12 A2986 RMK A01 T03950118  RH  019%=      5-min Rain = 0
KLA1 052004Z 19013KT 40/12 A2986 RMK A01 T03970117  RH  019%=      5-min Rain = 0
KLA1 052005Z 19009KT 40/12 A2986 RMK A01 T03960116  RH  019%=      5-min Rain = 0
KLA1 052006Z 20012KT 40/12 A2986 RMK A01 T03950117  RH  019%=      5-min Rain = 0
KLA1 052007Z 20009KT 39/12 A2986 RMK A01 T03930117  RH  019%=      5-min Rain = 0
KLA1 052008Z 20009KT 39/12 A2986 RMK A01 T03930118  RH  020%=      5-min Rain = 0
KLA1 052009Z 19009KT 39/12 A2986 RMK A01 T03940119  RH  019%=      5-min Rain = 0
KLA1 052010Z 19008G14KT 40/12 A2986 RMK A01 T03980119  RH  019%=      5-min Rain = 0
KLA1 052011Z 18008KT 40/12 A2986 RMK A01 T03990119  RH  019%=      5-min Rain = 0
KLA1 052012Z 19009KT 40/12 A2986 RMK A01 T03990120  RH  019%=      5-min Rain = 0
KLA1 052013Z 18011G16KT 40/12 A2986 RMK A01 T03980121  RH  019%=      5-min Rain = 0
KLA1 052014Z 18009KT 40/12 A2986 RMK A01 T03990122  RH  019%=      5-min Rain = 0
KLA1 052015Z 18008KT 40/12 A2986 RMK A01 T03970123  RH  020%=      5-min Rain = 0
KLA1 052016Z 18008KT 39/12 A2986 RMK A01 T03940121  RH  020%=      5-min Rain = 0
KLA1 052017Z 17011G19KT 39/12 A2986 RMK A01 T03910122  RH  020%=      5-min Rain = 0
KLA1 052018Z 16012KT 39/12 A2986 RMK A01 T03930123  RH  020%=      5-min Rain = 0
KLA1 052019Z 15010KT 40/12 A2986 RMK A01 T03950123  RH  020%=      5-min Rain = 0
KLA1 052020Z 16012KT 40/12 A2985 RMK A01 T03950124  RH  020%=      5-min Rain = 0
KLA1 052021Z 17011G16KT 40/12 A2985 RMK A01 T03970123  RH  020%=      5-min Rain = 0
KLA1 052022Z 18014KT 40/12 A2985 RMK A01 T03980122  RH  019%=      5-min Rain = 0
KLA1 052023Z 19010KT 40/12 A2985 RMK A01 T03980123  RH  020%=      5-min Rain = 0
KLA1 052024Z 18012KT 40/12 A2985 RMK A01 T03970121  RH  019%=      5-min Rain = 0
KLA1 052025Z 18012KT 40/12 A2985 RMK A01 T03960121  RH  019%=      5-min Rain = 0
KLA1 052026Z 18011G17KT 40/12 A2985 RMK A01 T03990121  RH  019%=      5-min Rain = 0
KLA1 052027Z 19012KT 40/12 A2985 RMK A01 T04020120  RH  019%=      5-min Rain = 0
KLA1 052028Z 19012KT 40/12 A2985 RMK A01 T04000120  RH  019%=      5-min Rain = 0
KLA1 052029Z 19009KT 40/12 A2985 RMK A01 T03980121  RH  019%=      5-min Rain = 0
KLA1 052030Z 18008KT 40/12 A2985 RMK A01 T04010121  RH  019%=      5-min Rain = 0
KLA1 052031Z 13010KT 40/12 A2985 RMK A01 T04020121  RH  019%=      5-min Rain = 0
KLA1 052032Z 15013KT 40/12 A2985 RMK A01 T03990118  RH  019%=      5-min Rain = 0
KLA1 052033Z 14012KT 40/12 A2985 RMK A01 T03970119  RH  019%=      5-min Rain = 0
KLA1 052034Z 12009KT 40/12 A2985 RMK A01 T03980119  RH  019%=      5-min Rain = 0
KLA1 052035Z 11008KT 40/12 A2985 RMK A01 T03970118  RH  019%=      5-min Rain = 0
KLA1 052036Z 10009KT 40/12 A2985 RMK A01 T03950119  RH  019%=      5-min Rain = 0
KLA1 052037Z 13011KT 40/12 A2985 RMK A01 T03960119  RH  019%=      5-min Rain = 0
KLA1 052038Z 11009KT 40/12 A2985 RMK A01 T03950117  RH  019%=      5-min Rain = 0
KLA1 052039Z 13009KT 39/12 A2985 RMK A01 T03940118  RH  019%=      5-min Rain = 0
KLA1 052040Z 13007KT 39/12 A2985 RMK A01 T03940116  RH  019%=      5-min Rain = 0
KLA1 052041Z 11010KT 39/12 A2985 RMK A01 T03940117  RH  019%=      5-min Rain = 0
KLA1 052042Z 11008KT 40/12 A2985 RMK A01 T03960119  RH  019%=      5-min Rain = 0
KLA1 052043Z 14010KT 40/12 A2984 RMK A01 T03980121  RH  019%=      5-min Rain = 0
KLA1 052044Z 15013KT 40/12 A2985 RMK A01 T04000124  RH  020%=      5-min Rain = 0
KLA1 052045Z 17010KT 40/13 A2985 RMK A01 T03990125  RH  020%=      5-min Rain = 0
KLA1 052046Z 17009KT 40/13 A2984 RMK A01 T04000125  RH  020%=      5-min Rain = 0
KLA1 052047Z 17007KT 40/12 A2984 RMK A01 T03980124  RH  020%=      5-min Rain = 0
KLA1 052048Z 21009KT 40/12 A2984 RMK A01 T03970122  RH  019%=      5-min Rain = 0
KLA1 052049Z 18008KT 40/12 A2984 RMK A01 T03970123  RH  020%=      5-min Rain = 0
KLA1 052050Z 18009KT 40/13 A2984 RMK A01 T03960126  RH  020%=      5-min Rain = 0
KLA1 052051Z 13012KT 40/13 A2984 RMK A01 T03960127  RH  020%=      5-min Rain = 0
KLA1 052052Z 12008KT 39/13 A2984 RMK A01 T03940127  RH  021%=      5-min Rain = 0
KLA1 052053Z 15005KT 39/13 A2984 RMK A01 T03920128  RH  021%=      5-min Rain = 0
KLA1 052054Z 17007KT 39/13 A2984 RMK A01 T03920128  RH  021%=      5-min Rain = 0
KLA1 052055Z 14010G15KT 39/13 A2984 RMK A01 T03930130  RH  021%=      5-min Rain = 0
KLA1 052056Z 14009G14KT 40/13 A2984 RMK A01 T03960129  RH  021%=      5-min Rain = 0
KLA1 052057Z 15013G19KT 40/13 A2984 RMK A01 T03970130  RH  021%=      5-min Rain = 0
KLA1 052058Z 15011KT 40/13 A2984 RMK A01 T03980129  RH  020%=      5-min Rain = 0
KLA1 052059Z 16011KT 40/13 A2984 RMK A01 T03970129  RH  020%=      5-min Rain = 0
KLA1 052100Z 16015G21KT 40/13 A2984 RMK A01 T03970128  RH  020%=      5-min Rain = 0
KLA1 052101Z 15015G20KT 40/13 A2984 RMK A01 T03990128  RH  020%=      5-min Rain = 0
KLA1 052102Z 15013KT 40/13 A2984 RMK A01 T03990127  RH  020%=      5-min Rain = 0
KLA1 052103Z 14015KT 40/13 A2984 RMK A01 T03970127  RH  020%=      5-min Rain = 0
KLA1 052104Z 15011KT 40/13 A2984 RMK A01 T03980126  RH  020%=      5-min Rain = 0
KLA1 052105Z 14009G15KT 40/13 A2984 RMK A01 T03950126  RH  020%=      5-min Rain = 0
KLA1 052106Z 15011KT 40/13 A2984 RMK A01 T03980126  RH  020%=      5-min Rain = 0
KLA1 052107Z 17005G10KT 40/12 A2983 RMK A01 T04010124  RH  019%=      5-min Rain = 0
KLA1 052108Z 13011G16KT 40/13 A2983 RMK A01 T04000125  RH  020%=      5-min Rain = 0
KLA1 052109Z 10012KT 40/12 A2984 RMK A01 T04010123  RH  019%=      5-min Rain = 0
KLA1 052110Z 10006KT 40/12 A2984 RMK A01 T03980121  RH  019%=      5-min Rain = 0
KLA1 052111Z 11004G9KT 40/12 A2983 RMK A01 T03950122  RH  020%=      5-min Rain = 0
KLA1 052112Z 15011KT 40/12 A2983 RMK A01 T03960123  RH  020%=      5-min Rain = 0
KLA1 052113Z 14011KT 40/12 A2983 RMK A01 T03990123  RH  019%=      5-min Rain = 0
KLA1 052114Z 11008KT 40/12 A2983 RMK A01 T03970122  RH  020%=      5-min Rain = 0
KLA1 052115Z 12007KT 40/12 A2983 RMK A01 T03950123  RH  020%=      5-min Rain = 0
KLA1 052116Z 11007KT 39/12 A2983 RMK A01 T03940122  RH  020%=      5-min Rain = 0
KLA1 052117Z 11006KT 39/12 A2983 RMK A01 T03940122  RH  020%=      5-min Rain = 0
KLA1 052118Z 18006G11KT 39/12 A2983 RMK A01 T03930123  RH  020%=      5-min Rain = 0
KLA1 052119Z 16007G12KT 39/13 A2983 RMK A01 T03940125  RH  020%=      5-min Rain = 0
KLA1 052120Z 17012KT 40/13 A2983 RMK A01 T03960126  RH  020%=      5-min Rain = 0
KLA1 052121Z 15013KT 40/12 A2983 RMK A01 T03990123  RH  020%=      5-min Rain = 0
KLA1 052122Z 15014G19KT 40/12 A2983 RMK A01 T03990122  RH  019%=      5-min Rain = 0
KLA1 052123Z 16011KT 40/12 A2983 RMK A01 T03990123  RH  019%=      5-min Rain = 0
KLA1 052124Z 17008KT 40/12 A2983 RMK A01 T03980122  RH  019%=      5-min Rain = 0
KLA1 052125Z 17009KT 40/12 A2983 RMK A01 T03970122  RH  020%=      5-min Rain = 0
KLA1 052126Z 15006KT 40/12 A2983 RMK A01 T03970122  RH  019%=      5-min Rain = 0
KLA1 052127Z 15009KT 40/12 A2983 RMK A01 T03980122  RH  019%=      5-min Rain = 0
KLA1 052128Z 12009KT 40/12 A2983 RMK A01 T04000122  RH  019%=      5-min Rain = 0
KLA1 052129Z 14012G21KT 40/12 A2983 RMK A01 T03990120  RH  019%=      5-min Rain = 0
KLA1 052130Z 15010KT 40/12 A2983 RMK A01 T04020122  RH  019%=      5-min Rain = 0
KLA1 052131Z 17011KT 40/12 A2983 RMK A01 T04040120  RH  019%=      5-min Rain = 0
KLA1 052132Z 18007KT 40/12 A2983 RMK A01 T04010120  RH  019%=      5-min Rain = 0
KLA1 052133Z 17007KT 40/12 A2983 RMK A01 T03990120  RH  019%=      5-min Rain = 0
KLA1 052134Z 17009KT 40/12 A2983 RMK A01 T03990121  RH  019%=      5-min Rain = 0
KLA1 052135Z 18010KT 40/12 A2983 RMK A01 T03980121  RH  019%=      5-min Rain = 0
KLA1 052136Z 17009KT 40/12 A2983 RMK A01 T03980122  RH  019%=      5-min Rain = 0
KLA1 052137Z 16011KT 40/12 A2983 RMK A01 T04020121  RH  019%=      5-min Rain = 0
KLA1 052138Z 16009KT 40/12 A2983 RMK A01 T04040118  RH  018%=      5-min Rain = 0
KLA1 052139Z 17007KT 40/12 A2983 RMK A01 T04010117  RH  019%=      5-min Rain = 0
KLA1 052140Z 15009KT 40/12 A2983 RMK A01 T03970117  RH  019%=      5-min Rain = 0
KLA1 052141Z 14007KT 40/12 A2983 RMK A01 T03980119  RH  019%=      5-min Rain = 0
KLA1 052142Z 15011G16KT 40/12 A2983 RMK A01 T04010119  RH  019%=      5-min Rain = 0
KLA1 052143Z 13013KT 40/12 A2983 RMK A01 T04030118  RH  018%=      5-min Rain = 0
KLA1 052144Z 13007KT 40/12 A2983 RMK A01 T04010116  RH  018%=      5-min Rain = 0
KLA1 052145Z 13009KT 40/12 A2983 RMK A01 T03990117  RH  019%=      5-min Rain = 0
KLA1 052146Z 14009KT 40/12 A2982 RMK A01 T03990116  RH  019%=      5-min Rain = 0
KLA1 052147Z 13007KT 40/12 A2982 RMK A01 T03980116  RH  019%=      5-min Rain = 0
KLA1 052148Z 13009KT 40/12 A2982 RMK A01 T03990117  RH  019%=      5-min Rain = 0
KLA1 052149Z 14013KT 40/12 A2982 RMK A01 T04030117  RH  018%=      5-min Rain = 0
KLA1 052150Z 15011KT 40/12 A2982 RMK A01 T04040116  RH  018%=      5-min Rain = 0
KLA1 052151Z 14010G16KT 40/12 A2982 RMK A01 T04040117  RH  018%=      5-min Rain = 0
KLA1 052152Z 11010KT 41/12 A2982 RMK A01 T04060117  RH  018%=      5-min Rain = 0
KLA1 052153Z 11007KT 40/12 A2982 RMK A01 T04040115  RH  018%=      5-min Rain = 0
KLA1 052154Z 14010KT 40/12 A2982 RMK A01 T04030117  RH  018%=      5-min Rain = 0
KLA1 052155Z 15011KT 41/12 A2983 RMK A01 T04070117  RH  018%=      5-min Rain = 0
KLA1 052156Z 14007KT 41/12 A2983 RMK A01 T04050115  RH  018%=      5-min Rain = 0
KLA1 052157Z 23001KT 40/11 A2982 RMK A01 T04010114  RH  018%=      5-min Rain = 0
KLA1 052158Z 22003KT 40/12 A2982 RMK A01 T04000115  RH  018%=      5-min Rain = 0
KLA1 052159Z 23005KT 40/12 A2982 RMK A01 T04010115  RH  018%=      5-min Rain = 0
KLA1 052200Z 19009KT 40/12 A2982 RMK A01 T04010115  RH  018%=      5-min Rain = 0
KLA1 052201Z 19006KT 40/11 A2982 RMK A01 T03980113  RH  018%=      5-min Rain = 0
KLA1 052202Z 18007KT 40/11 A2982 RMK A01 T03970114  RH  019%=      5-min Rain = 0
KLA1 052203Z 19007G15KT 40/11 A2982 RMK A01 T03960113  RH  019%=      5-min Rain = 0
KLA1 052204Z 16010G15KT 40/11 A2982 RMK A01 T03970114  RH  019%=      5-min Rain = 0
KLA1 052205Z 14009KT 40/11 A2982 RMK A01 T04020114  RH  018%=      5-min Rain = 0
KLA1 052206Z 15010KT 40/11 A2982 RMK A01 T04030113  RH  018%=      5-min Rain = 0
KLA1 052207Z 16011KT 41/12 A2982 RMK A01 T04060115  RH  018%=      5-min Rain = 0
KLA1 052208Z 17010KT 41/11 A2982 RMK A01 T04050113  RH  018%=      5-min Rain = 0
KLA1 052209Z 17009KT 40/11 A2982 RMK A01 T04010113  RH  018%=      5-min Rain = 0
KLA1 052210Z 16008KT 40/11 A2982 RMK A01 T03990113  RH  018%=      5-min Rain = 0
KLA1 052211Z 10008KT 40/11 A2982 RMK A01 T03990114  RH  018%=      5-min Rain = 0
KLA1 052212Z 09008KT 40/11 A2982 RMK A01 T04010114  RH  018%=      5-min Rain = 0
KLA1 052213Z 12006KT 40/11 A2982 RMK A01 T04020113  RH  018%=      5-min Rain = 0
KLA1 052214Z 12009KT 40/11 A2982 RMK A01 T04020113  RH  018%=      5-min Rain = 0
KLA1 052215Z 11011KT 40/11 A2982 RMK A01 T04010113  RH  018%=      5-min Rain = 0
KLA1 052216Z 13010KT 40/11 A2982 RMK A01 T04030113  RH  018%=      5-min Rain = 0
KLA1 052217Z 13010KT 40/11 A2982 RMK A01 T04040113  RH  018%=      5-min Rain = 0
KLA1 052218Z 13010KT 41/11 A2982 RMK A01 T04050113  RH  018%=      5-min Rain = 0
KLA1 052219Z 14007G13KT 41/11 A2982 RMK A01 T04060113  RH  018%=      5-min Rain = 0
KLA1 052220Z 13007KT 41/11 A2982 RMK A01 T04070112  RH  017%=      5-min Rain = 0
KLA1 052221Z 13009KT 41/11 A2981 RMK A01 T04070113  RH  017%=      5-min Rain = 0
KLA1 052222Z 13011KT 41/11 A2982 RMK A01 T04060112  RH  017%=      5-min Rain = 0
KLA1 052223Z 14010KT 40/11 A2981 RMK A01 T04040112  RH  018%=      5-min Rain = 0
KLA1 052224Z 17010KT 40/11 A2981 RMK A01 T04030112  RH  018%=      5-min Rain = 0
KLA1 052225Z 17010G15KT 40/11 A2981 RMK A01 T04010111  RH  018%=      5-min Rain = 0
KLA1 052226Z 14010KT 40/11 A2981 RMK A01 T03990111  RH  018%=      5-min Rain = 0
KLA1 052227Z 13013KT 40/11 A2981 RMK A01 T03980111  RH  018%=      5-min Rain = 0
KLA1 052228Z 13014KT 40/11 A2981 RMK A01 T04000112  RH  018%=      5-min Rain = 0
KLA1 052229Z 13010KT 40/11 A2981 RMK A01 T04010111  RH  018%=      5-min Rain = 0
KLA1 052230Z 13013KT 40/11 A2981 RMK A01 T04000111  RH  018%=      5-min Rain = 0
KLA1 052231Z 15013KT 40/11 A2981 RMK A01 T04020112  RH  018%=      5-min Rain = 0
KLA1 052232Z 16012KT 40/11 A2981 RMK A01 T04020111  RH  018%=      5-min Rain = 0
KLA1 052233Z 15014G20KT 40/11 A2981 RMK A01 T04020111  RH  018%=      5-min Rain = 0
KLA1 052234Z 14011KT 40/11 A2981 RMK A01 T03990111  RH  018%=      5-min Rain = 0
KLA1 052235Z 15012KT 40/11 A2981 RMK A01 T04000111  RH  018%=      5-min Rain = 0
KLA1 052236Z 14010KT 40/11 A2981 RMK A01 T04010111  RH  018%=      5-min Rain = 0
KLA1 052237Z 14010KT 40/11 A2981 RMK A01 T03990110  RH  018%=      5-min Rain = 0
KLA1 052238Z 13009KT 40/11 A2981 RMK A01 T03980110  RH  018%=      5-min Rain = 0
KLA1 052239Z 13006KT 40/11 A2981 RMK A01 T03970110  RH  018%=      5-min Rain = 0
KLA1 052240Z 17005KT 40/11 A2981 RMK A01 T03960110  RH  018%=      5-min Rain = 0
KLA1 052241Z 18008KT 40/11 A2981 RMK A01 T03970111  RH  018%=      5-min Rain = 0
KLA1 052242Z 16007KT 40/11 A2981 RMK A01 T03990111  RH  018%=      5-min Rain = 0
KLA1 052243Z 16007KT 40/11 A2981 RMK A01 T04000111  RH  018%=      5-min Rain = 0
KLA1 052244Z 16007KT 40/11 A2981 RMK A01 T03990111  RH  018%=      5-min Rain = 0
KLA1 052245Z 16005KT 40/11 A2981 RMK A01 T03980111  RH  018%=      5-min Rain = 0
KLA1 052246Z 15008KT 40/11 A2981 RMK A01 T03980112  RH  018%=      5-min Rain = 0
KLA1 052247Z 16012KT 40/11 A2981 RMK A01 T03990111  RH  018%=      5-min Rain = 0
KLA1 052248Z 15011G18KT 40/11 A2981 RMK A01 T04010112  RH  018%=      5-min Rain = 0
KLA1 052249Z 15014KT 40/11 A2981 RMK A01 T04030111  RH  018%=      5-min Rain = 0
KLA1 052250Z 16012KT 40/11 A2981 RMK A01 T04000110  RH  018%=      5-min Rain = 0
KLA1 052251Z 16015KT 40/11 A2981 RMK A01 T03990111  RH  018%=      5-min Rain = 0
KLA1 052252Z 14012KT 40/11 A2981 RMK A01 T03990110  RH  018%=      5-min Rain = 0
KLA1 052253Z 14008KT 40/11 A2981 RMK A01 T03960109  RH  018%=      5-min Rain = 0
KLA1 052254Z 13007KT 40/11 A2981 RMK A01 T03970111  RH  018%=      5-min Rain = 0
KLA1 052255Z 14007G14KT 40/11 A2981 RMK A01 T03980110  RH  018%=      5-min Rain = 0
KLA1 052256Z 15010KT 40/11 A2981 RMK A01 T03980111  RH  018%=      5-min Rain = 0
KLA1 052257Z 17009KT 40/11 A2981 RMK A01 T04010111  RH  018%=      5-min Rain = 0
KLA1 052258Z 16007KT 40/11 A2981 RMK A01 T04020112  RH  018%=      5-min Rain = 0
KLA1 052259Z 15010KT 40/11 A2981 RMK A01 T04040112  RH  018%=      5-min Rain = 0
KLA1 052300Z 15008KT 40/11 A2981 RMK A01 T04040110  RH  017%=      5-min Rain = 0
KLA1 052301Z 14005KT 40/11 A2981 RMK A01 T04000110  RH  018%=      5-min Rain = 0
KLA1 052302Z 14006KT 40/11 A2981 RMK A01 T03990110  RH  018%=      5-min Rain = 0
KLA1 052303Z 14007KT 40/11 A2981 RMK A01 T03980110  RH  018%=      5-min Rain = 0
KLA1 052304Z 15007KT 40/11 A2981 RMK A01 T03990110  RH  018%=      5-min Rain = 0
KLA1 052305Z 15008KT 40/11 A2981 RMK A01 T03990110  RH  018%=      5-min Rain = 0
KLA1 052306Z 15007KT 40/11 A2981 RMK A01 T03990110  RH  018%=      5-min Rain = 0
KLA1 052307Z 16003KT 40/11 A2981 RMK A01 T03980109  RH  018%=      5-min Rain = 0
KLA1 052308Z 16004KT 40/11 A2981 RMK A01 T03960109  RH  018%=      5-min Rain = 0
KLA1 052309Z 14007KT 40/11 A2981 RMK A01 T03950108  RH  018%=      5-min Rain = 0
KLA1 052310Z 17007G12KT 40/11 A2981 RMK A01 T03970108  RH  018%=      5-min Rain = 0
KLA1 052311Z 16011KT 40/11 A2981 RMK A01 T04000109  RH  018%=      5-min Rain = 0
KLA1 052312Z 17009KT 40/11 A2981 RMK A01 T04000109  RH  018%=      5-min Rain = 0
KLA1 052313Z 17012KT 40/11 A2981 RMK A01 T04000108  RH  018%=      5-min Rain = 0
KLA1 052314Z 15011KT 40/11 A2981 RMK A01 T04000108  RH  018%=      5-min Rain = 0
KLA1 052315Z 13014KT 40/11 A2981 RMK A01 T04010107  RH  017%=      5-min Rain = 0
KLA1 052316Z 13014KT 40/11 A2981 RMK A01 T04010106  RH  017%=      5-min Rain = 0
KLA1 052317Z 13015KT 40/11 A2981 RMK A01 T03990105  RH  017%=      5-min Rain = 0
KLA1 052318Z 14015KT 40/11 A2981 RMK A01 T03980106  RH  017%=      5-min Rain = 0
KLA1 052319Z 12014KT 40/11 A2981 RMK A01 T03980105  RH  017%=      5-min Rain = 0
KLA1 052320Z 14012KT 40/11 A2981 RMK A01 T03960105  RH  018%=      5-min Rain = 0
KLA1 052321Z 13008KT 40/11 A2981 RMK A01 T03960105  RH  018%=      5-min Rain = 0
KLA1 052322Z 12006KT 40/11 A2981 RMK A01 T03960105  RH  018%=      5-min Rain = 0
KLA1 052323Z 12008KT 40/11 A2981 RMK A01 T03950105  RH  018%=      5-min Rain = 0
KLA1 052324Z 13008KT 40/11 A2981 RMK A01 T03950106  RH  018%=      5-min Rain = 0
KLA1 052325Z 12005KT 40/11 A298 RMK A01 T03960105  RH  018%=      5-min Rain = 0
KLA1 052326Z 15006KT 40/11 A298 RMK A01 T03970106  RH  018%=      5-min Rain = 0
KLA1 052327Z 15008KT 40/11 A298 RMK A01 T03980105  RH  017%=      5-min Rain = 0
KLA1 052328Z 16012KT 40/10 A298 RMK A01 T04000103  RH  017%=      5-min Rain = 0
KLA1 052329Z 16012KT 40/10 A298 RMK A01 T04000102  RH  017%=      5-min Rain = 0
KLA1 052330Z 17012KT 40/10 A298 RMK A01 T03990102  RH  017%=      5-min Rain = 0
KLA1 052331Z 17011KT 40/10 A298 RMK A01 T03960101  RH  017%=      5-min Rain = 0
KLA1 052332Z 17010KT 40/10 A298 RMK A01 T03960102  RH  017%=      5-min Rain = 0
KLA1 052333Z 17009KT 40/10 A298 RMK A01 T03960101  RH  017%=      5-min Rain = 0
KLA1 052334Z 17011KT 40/10 A298 RMK A01 T03950102  RH  017%=      5-min Rain = 0
KLA1 052335Z 18012KT 40/10 A298 RMK A01 T03960102  RH  017%=      5-min Rain = 0
KLA1 052336Z 18012KT 40/10 A298 RMK A01 T03970103  RH  017%=      5-min Rain = 0
KLA1 052337Z 18014KT 40/10 A298 RMK A01 T03970102  RH  017%=      5-min Rain = 0
KLA1 052338Z 16011KT 40/10 A298 RMK A01 T03970103  RH  017%=      5-min Rain = 0
KLA1 052339Z 16011KT 40/10 A298 RMK A01 T03990103  RH  017%=      5-min Rain = 0
KLA1 052340Z 14010KT 40/10 A298 RMK A01 T04000103  RH  017%=      5-min Rain = 0
KLA1 052341Z 13009KT 40/10 A298 RMK A01 T03970101  RH  017%=      5-min Rain = 0
KLA1 052342Z 16012G17KT 40/10 A298 RMK A01 T03960102  RH  017%=      5-min Rain = 0
KLA1 052343Z 15014KT 40/10 A298 RMK A01 T03970101  RH  017%=      5-min Rain = 0
KLA1 052344Z 15013G18KT 40/10 A298 RMK A01 T03970101  RH  017%=      5-min Rain = 0
KLA1 052345Z 16013KT 40/10 A298 RMK A01 T03960101  RH  017%=      5-min Rain = 0
KLA1 052346Z 17011KT 40/10 A298 RMK A01 T03950100  RH  017%=      5-min Rain = 0
KLA1 052347Z 17007KT 39/10 A298 RMK A01 T03940100  RH  017%=      5-min Rain = 0
KLA1 052348Z 17007KT 39/10 A298 RMK A01 T03930100  RH  017%=      5-min Rain = 0
KLA1 052349Z 15010G15KT 39/10 A298 RMK A01 T03920100  RH  017%=      5-min Rain = 0
KLA1 052350Z 13010KT 39/10 A298 RMK A01 T03920100  RH  017%=      5-min Rain = 0
KLA1 052351Z 15011KT 39/10 A298 RMK A01 T03920100  RH  017%=      5-min Rain = 0
KLA1 052352Z 14012KT 39/10 A298 RMK A01 T03920100  RH  017%=      5-min Rain = 0
KLA1 052353Z 14012KT 39/10 A298 RMK A01 T03930100  RH  017%=      5-min Rain = 0
KLA1 052354Z 14011KT 39/10 A298 RMK A01 T03930100  RH  017%=      5-min Rain = 0
KLA1 052355Z 14010KT 39/10 A298 RMK A01 T03920100  RH  017%=      5-min Rain = 0
KLA1 052356Z 15012KT 39/10 A2979 RMK A01 T03920100  RH  017%=      5-min Rain = 0
KLA1 052357Z 13012KT 39/10 A298 RMK A01 T03930101  RH  017%=      5-min Rain = 0
KLA1 052358Z 15012G17KT 39/10 A298 RMK A01 T03930100  RH  017%=      5-min Rain = 0
KLA1 052359Z 15007KT 39/10 A298 RMK A01 T03930101  RH  017%=      5-min Rain = 0
KLA1 060000Z 14009KT 39/10 A298 RMK A01 T03930101  RH  017%=      5-min Rain = 0
KLA1 060001Z 13008KT 39/10 A2979 RMK A01 T03920100  RH  017%=      5-min Rain = 0
KLA1 060002Z 15008KT 39/10 A2979 RMK A01 T03910100  RH  017%=      5-min Rain = 0
KLA1 060003Z 16008KT 39/10 A298 RMK A01 T03910101  RH  018%=      5-min Rain = 0
KLA1 060004Z 16009KT 39/10 A2979 RMK A01 T03930102  RH  017%=      5-min Rain = 0
KLA1 060005Z 14008KT 39/10 A2979 RMK A01 T03940102  RH  017%=      5-min Rain = 0
KLA1 060006Z 14009KT 40/10 A2979 RMK A01 T03960102  RH  017%=      5-min Rain = 0
KLA1 060007Z 16009KT 40/10 A2979 RMK A01 T03950101  RH  017%=      5-min Rain = 0
KLA1 060008Z 16010KT 40/10 A2979 RMK A01 T03950102  RH  017%=      5-min Rain = 0
KLA1 060009Z 16011KT 40/10 A298 RMK A01 T03950101  RH  017%=      5-min Rain = 0
KLA1 060010Z 17010KT 39/10 A298 RMK A01 T03940101  RH  017%=      5-min Rain = 0
KLA1 060011Z 18009KT 39/10 A298 RMK A01 T03930101  RH  017%=      5-min Rain = 0
KLA1 060012Z 17010KT 39/10 A298 RMK A01 T03930101  RH  017%=      5-min Rain = 0
KLA1 060013Z 18010KT 39/10 A2979 RMK A01 T03920101  RH  017%=      5-min Rain = 0
KLA1 060014Z 18009KT 39/10 A2979 RMK A01 T03920101  RH  017%=      5-min Rain = 0
KLA1 060015Z 17008KT 39/10 A2979 RMK A01 T03920102  RH  018%=      5-min Rain = 0
KLA1 060016Z 17009KT 39/10 A2979 RMK A01 T03910102  RH  018%=      5-min Rain = 0
KLA1 060017Z 16008G13KT 39/10 A2979 RMK A01 T03910102  RH  018%=      5-min Rain = 0
KLA1 060018Z 14009KT 39/10 A2979 RMK A01 T03910103  RH  018%=      5-min Rain = 0
KLA1 060019Z 16010KT 39/10 A2979 RMK A01 T03920103  RH  018%=      5-min Rain = 0
KLA1 060020Z 17009KT 39/10 A2979 RMK A01 T03920103  RH  018%=      5-min Rain = 0
KLA1 060021Z 17011KT 39/10 A2979 RMK A01 T03920103  RH  018%=      5-min Rain = 0
KLA1 060022Z 16010KT 39/10 A2979 RMK A01 T03910103  RH  018%=      5-min Rain = 0
KLA1 060023Z 15013KT 39/10 A2979 RMK A01 T03910104  RH  018%=      5-min Rain = 0
KLA1 060024Z 15014KT 39/10 A2979 RMK A01 T03900104  RH  018%=      5-min Rain = 0
KLA1 060025Z 16011KT 39/10 A2979 RMK A01 T03900103  RH  018%=      5-min Rain = 0
KLA1 060026Z 16010KT 39/10 A2979 RMK A01 T03890104  RH  018%=      5-min Rain = 0
KLA1 060027Z 15009KT 39/11 A2979 RMK A01 T03890105  RH  018%=      5-min Rain = 0
KLA1 060028Z 16013KT 39/10 A2979 RMK A01 T03900104  RH  018%=      5-min Rain = 0
KLA1 060029Z 16011KT 39/10 A2979 RMK A01 T03900104  RH  018%=      5-min Rain = 0
KLA1 060030Z 14010KT 39/10 A2979 RMK A01 T03890104  RH  018%=      5-min Rain = 0
KLA1 060031Z 15009KT 39/10 A2979 RMK A01 T03880104  RH  018%=      5-min Rain = 0
KLA1 060032Z 15010KT 39/10 A2979 RMK A01 T03880103  RH  018%=      5-min Rain = 0
KLA1 060033Z 14013KT 39/11 A2979 RMK A01 T03880105  RH  018%=      5-min Rain = 0
KLA1 060034Z 13012KT 39/11 A2979 RMK A01 T03880105  RH  018%=      5-min Rain = 0
KLA1 060035Z 14011KT 39/11 A2979 RMK A01 T03870106  RH  018%=      5-min Rain = 0
KLA1 060036Z 15011KT 39/11 A2979 RMK A01 T03870106  RH  019%=      5-min Rain = 0
KLA1 060037Z 14012KT 39/11 A2979 RMK A01 T03860106  RH  019%=      5-min Rain = 0
KLA1 060038Z 15012KT 39/11 A2979 RMK A01 T03860106  RH  019%=      5-min Rain = 0
KLA1 060039Z 15011KT 39/11 A2979 RMK A01 T03860106  RH  019%=      5-min Rain = 0
KLA1 060040Z 14009KT 39/11 A2979 RMK A01 T03860106  RH  019%=      5-min Rain = 0
KLA1 060041Z 16005KT 39/11 A2979 RMK A01 T03860106  RH  019%=      5-min Rain = 0
KLA1 060042Z 13008KT 39/11 A2979 RMK A01 T03860107  RH  019%=      5-min Rain = 0
KLA1 060043Z 13010KT 39/11 A2979 RMK A01 T03860106  RH  019%=      5-min Rain = 0
KLA1 060044Z 14008KT 39/11 A2979 RMK A01 T03870107  RH  019%=      5-min Rain = 0
KLA1 060045Z 15009KT 39/11 A2979 RMK A01 T03870107  RH  019%=      5-min Rain = 0
KLA1 060046Z 14009KT 39/11 A2979 RMK A01 T03870106  RH  018%=      5-min Rain = 0
KLA1 060047Z 15009KT 39/11 A2979 RMK A01 T03870106  RH  019%=      5-min Rain = 0
KLA1 060048Z 14009KT 39/11 A2979 RMK A01 T03870105  RH  019%=      5-min Rain = 0
KLA1 060049Z 15010KT 39/11 A2979 RMK A01 T03860105  RH  019%=      5-min Rain = 0
KLA1 060050Z 16012G18KT 39/11 A2979 RMK A01 T03860106  RH  019%=      5-min Rain = 0
KLA1 060051Z 16014KT 39/11 A2979 RMK A01 T03850106  RH  019%=      5-min Rain = 0
KLA1 060052Z 16012KT 38/11 A2979 RMK A01 T03840106  RH  019%=      5-min Rain = 0
KLA1 060053Z 16012KT 38/11 A2979 RMK A01 T03820106  RH  019%=      5-min Rain = 0
KLA1 060054Z 15012KT 38/11 A2979 RMK A01 T03820106  RH  019%=      5-min Rain = 0
KLA1 060055Z 15011KT 38/11 A2979 RMK A01 T03810106  RH  019%=      5-min Rain = 0
KLA1 060056Z 15007KT 38/11 A2979 RMK A01 T03810106  RH  019%=      5-min Rain = 0
KLA1 060057Z 15010KT 38/11 A2979 RMK A01 T03810106  RH  019%=      5-min Rain = 0
KLA1 060058Z 14011KT 38/11 A2979 RMK A01 T03810106  RH  019%=      5-min Rain = 0
KLA1 060059Z 15009KT 38/11 A2979 RMK A01 T03810106  RH  019%=      5-min Rain = 0
KLA1 060100Z 15012KT 38/11 A2979 RMK A01 T03810106  RH  019%=      5-min Rain = 0
KLA1 060101Z 17009G14KT 38/11 A2979 RMK A01 T03810106  RH  019%=      5-min Rain = 0
KLA1 060102Z 17012KT 38/11 A2979 RMK A01 T03800105  RH  019%=      5-min Rain = 0
KLA1 060103Z 16011KT 38/11 A2979 RMK A01 T03790105  RH  019%=      5-min Rain = 0
KLA1 060104Z 15009KT 38/11 A2979 RMK A01 T03790105  RH  019%=      5-min Rain = 0
KLA1 060105Z 15010KT 38/11 A2979 RMK A01 T03780105  RH  019%=      5-min Rain = 0
KLA1 060106Z 15008KT 38/11 A2979 RMK A01 T03780107  RH  020%=      5-min Rain = 0
KLA1 060107Z 15010KT 38/11 A298 RMK A01 T03780107  RH  020%=      5-min Rain = 0
KLA1 060108Z 15009KT 38/11 A298 RMK A01 T03770107  RH  020%=      5-min Rain = 0
KLA1 060109Z 13013KT 38/11 A298 RMK A01 T03770106  RH  020%=      5-min Rain = 0
KLA1 060110Z 14012KT 38/11 A298 RMK A01 T03760106  RH  020%=      5-min Rain = 0
KLA1 060111Z 16011KT 38/11 A298 RMK A01 T03760105  RH  020%=      5-min Rain = 0
KLA1 060112Z 15007KT 38/11 A298 RMK A01 T03760106  RH  020%=      5-min Rain = 0
KLA1 060113Z 15007KT 38/11 A298 RMK A01 T03750106  RH  020%=      5-min Rain = 0
KLA1 060114Z 15008G13KT 37/11 A298 RMK A01 T03740105  RH  020%=      5-min Rain = 0
KLA1 060115Z 14010G15KT 38/11 A298 RMK A01 T03750105  RH  020%=      5-min Rain = 0
KLA1 060116Z 15009KT 37/11 A298 RMK A01 T03740106  RH  020%=      5-min Rain = 0
KLA1 060117Z 14009KT 37/11 A298 RMK A01 T03740106  RH  020%=      5-min Rain = 0
KLA1 060118Z 14011KT 37/11 A298 RMK A01 T03740106  RH  020%=      5-min Rain = 0
KLA1 060119Z 15011KT 37/11 A298 RMK A01 T03740106  RH  020%=      5-min Rain = 0
KLA1 060120Z 16008KT 37/11 A298 RMK A01 T03740106  RH  020%=      5-min Rain = 0
KLA1 060121Z 16008KT 37/11 A298 RMK A01 T03730106  RH  020%=      5-min Rain = 0
KLA1 060122Z 15012KT 37/11 A298 RMK A01 T03730106  RH  020%=      5-min Rain = 0
KLA1 060123Z 14010KT 37/11 A298 RMK A01 T03730107  RH  020%=      5-min Rain = 0
KLA1 060124Z 15010KT 37/11 A298 RMK A01 T03720106  RH  020%=      5-min Rain = 0
KLA1 060125Z 14010KT 37/11 A298 RMK A01 T03720106  RH  020%=      5-min Rain = 0
KLA1 060126Z 15008KT 37/11 A298 RMK A01 T03720106  RH  020%=      5-min Rain = 0
KLA1 060127Z 15009KT 37/11 A2981 RMK A01 T03710107  RH  020%=      5-min Rain = 0
KLA1 060128Z 16008KT 37/11 A2981 RMK A01 T03710106  RH  020%=      5-min Rain = 0
KLA1 060129Z 16007KT 37/11 A2981 RMK A01 T03710107  RH  020%=      5-min Rain = 0
KLA1 060130Z 15009KT 37/11 A2981 RMK A01 T03700106  RH  020%=      5-min Rain = 0
KLA1 060131Z 15010KT 37/11 A2981 RMK A01 T03690105  RH  020%=      5-min Rain = 0
KLA1 060132Z 16007KT 37/11 A2981 RMK A01 T03690105  RH  020%=      5-min Rain = 0
KLA1 060133Z 16008KT 37/11 A2981 RMK A01 T03690105  RH  020%=      5-min Rain = 0
KLA1 060134Z 16008KT 37/11 A2981 RMK A01 T03690105  RH  020%=      5-min Rain = 0
KLA1 060135Z 15009KT 37/11 A2981 RMK A01 T03690105  RH  020%=      5-min Rain = 0
KLA1 060136Z 16008KT 37/11 A2981 RMK A01 T03690105  RH  020%=      5-min Rain = 0
KLA1 060137Z 15008KT 37/10 A2981 RMK A01 T03680104  RH  020%=      5-min Rain = 0
KLA1 060138Z 15008KT 37/10 A2981 RMK A01 T03680104  RH  020%=      5-min Rain = 0
KLA1 060139Z 15010KT 37/10 A2981 RMK A01 T03670104  RH  020%=      5-min Rain = 0
KLA1 060140Z 15008KT 37/10 A2981 RMK A01 T03670104  RH  020%=      5-min Rain = 0
KLA1 060141Z 15007KT 37/10 A2981 RMK A01 T03670104  RH  020%=      5-min Rain = 0
KLA1 060142Z 16007KT 37/11 A2981 RMK A01 T03660105  RH  021%=      5-min Rain = 0
KLA1 060143Z 16006KT 37/10 A2981 RMK A01 T03660104  RH  021%=      5-min Rain = 0
KLA1 060144Z 15006KT 37/11 A2981 RMK A01 T03650105  RH  021%=      5-min Rain = 0
KLA1 060145Z 15006KT 36/10 A2981 RMK A01 T03640104  RH  021%=      5-min Rain = 0
KLA1 060146Z 16006KT 36/11 A2981 RMK A01 T03640105  RH  021%=      5-min Rain = 0
KLA1 060147Z 16006KT 36/10 A2981 RMK A01 T03630104  RH  021%=      5-min Rain = 0
KLA1 060148Z 17006KT 36/10 A2981 RMK A01 T03630104  RH  021%=      5-min Rain = 0
KLA1 060149Z 16007KT 36/10 A2981 RMK A01 T03620104  RH  021%=      5-min Rain = 0
KLA1 060150Z 15009KT 36/10 A2981 RMK A01 T03620104  RH  021%=      5-min Rain = 0
KLA1 060151Z 16012KT 36/10 A2981 RMK A01 T03620100  RH  020%=      5-min Rain = 0
KLA1 060152Z 17010KT 36/10 A2982 RMK A01 T03630095  RH  020%=      5-min Rain = 0
KLA1 060153Z 17008KT 36/10 A2982 RMK A01 T03640096  RH  020%=      5-min Rain = 0
KLA1 060154Z 18007KT 36/10 A2982 RMK A01 T03640096  RH  020%=      5-min Rain = 0
KLA1 060155Z 18006KT 36/10 A2982 RMK A01 T03640097  RH  020%=      5-min Rain = 0
KLA1 060156Z 17008KT 36/10 A2982 RMK A01 T03630096  RH  020%=      5-min Rain = 0
KLA1 060157Z 18008KT 36/10 A2982 RMK A01 T03630095  RH  020%=      5-min Rain = 0
KLA1 060158Z 17008KT 36/09 A2982 RMK A01 T03620094  RH  020%=      5-min Rain = 0
KLA1 060159Z 18007KT 36/09 A2982 RMK A01 T03620093  RH  019%=      5-min Rain = 0
KLA1 060200Z 18006KT 36/09 A2983 RMK A01 T03620093  RH  019%=      5-min Rain = 0
KLA1 060201Z 18007KT 36/09 A2983 RMK A01 T03620093  RH  019%=      5-min Rain = 0
KLA1 060202Z 18008KT 36/09 A2983 RMK A01 T03620093  RH  019%=      5-min Rain = 0
KLA1 060203Z 18006KT 36/09 A2983 RMK A01 T03610093  RH  020%=      5-min Rain = 0
KLA1 060204Z 18006KT 36/09 A2983 RMK A01 T03610093  RH  020%=      5-min Rain = 0
KLA1 060205Z 18006KT 36/09 A2983 RMK A01 T03600093  RH  020%=      5-min Rain = 0
KLA1 060206Z 18006KT 36/09 A2983 RMK A01 T03590093  RH  020%=      5-min Rain = 0
KLA1 060207Z 17005KT 36/09 A2983 RMK A01 T03590093  RH  020%=      5-min Rain = 0
KLA1 060208Z 17008KT 36/09 A2983 RMK A01 T03580092  RH  020%=      5-min Rain = 0
KLA1 060209Z 18006KT 36/09 A2983 RMK A01 T03580092  RH  020%=      5-min Rain = 0
KLA1 060210Z 18005KT 36/09 A2983 RMK A01 T03580092  RH  020%=      5-min Rain = 0
KLA1 060211Z 18004KT 36/09 A2983 RMK A01 T03580092  RH  020%=      5-min Rain = 0
KLA1 060212Z 17005KT 36/09 A2983 RMK A01 T03570092  RH  020%=      5-min Rain = 0
KLA1 060213Z 18006KT 36/09 A2983 RMK A01 T03570092  RH  020%=      5-min Rain = 0
KLA1 060214Z 18006KT 36/09 A2983 RMK A01 T03570092  RH  020%=      5-min Rain = 0
KLA1 060215Z 18007KT 36/09 A2983 RMK A01 T03560091  RH  020%=      5-min Rain = 0
KLA1 060216Z 17009KT 36/09 A2983 RMK A01 T03570091  RH  020%=      5-min Rain = 0
KLA1 060217Z 18007KT 36/09 A2983 RMK A01 T03570091  RH  020%=      5-min Rain = 0
KLA1 060218Z 18006KT 36/09 A2983 RMK A01 T03580091  RH  020%=      5-min Rain = 0
KLA1 060219Z 17005KT 36/09 A2984 RMK A01 T03580091  RH  020%=      5-min Rain = 0
KLA1 060220Z 18005KT 36/09 A2984 RMK A01 T03580091  RH  020%=      5-min Rain = 0
KLA1 060221Z 18005KT 36/09 A2984 RMK A01 T03570091  RH  020%=      5-min Rain = 0
KLA1 060222Z 17006KT 36/09 A2984 RMK A01 T03560090  RH  020%=      5-min Rain = 0
KLA1 060223Z 18006KT 36/09 A2984 RMK A01 T03560091  RH  020%=      5-min Rain = 0
KLA1 060224Z 20004KT 36/09 A2984 RMK A01 T03560091  RH  020%=      5-min Rain = 0
KLA1 060225Z 19004KT 36/09 A2984 RMK A01 T03550091  RH  020%=      5-min Rain = 0
KLA1 060226Z 19005KT 35/09 A2984 RMK A01 T03540091  RH  020%=      5-min Rain = 0
KLA1 060227Z 18004KT 35/09 A2984 RMK A01 T03530092  RH  020%=      5-min Rain = 0
KLA1 060228Z 19003KT 35/09 A2984 RMK A01 T03530092  RH  020%=      5-min Rain = 0
KLA1 060229Z 19004KT 35/09 A2984 RMK A01 T03510092  RH  020%=      5-min Rain = 0
KLA1 060230Z 18005KT 35/09 A2984 RMK A01 T03500091  RH  021%=      5-min Rain = 0
KLA1 060231Z 19004KT 35/09 A2984 RMK A01 T03500091  RH  021%=      5-min Rain = 0
KLA1 060232Z 19006KT 35/09 A2984 RMK A01 T03500090  RH  020%=      5-min Rain = 0
KLA1 060233Z 18006KT 35/09 A2984 RMK A01 T03510090  RH  020%=      5-min Rain = 0
KLA1 060234Z 19005KT 35/09 A2984 RMK A01 T03520090  RH  020%=      5-min Rain = 0
KLA1 060235Z 20004KT 35/09 A2984 RMK A01 T03520091  RH  020%=      5-min Rain = 0
KLA1 060236Z 19004KT 35/09 A2984 RMK A01 T03510092  RH  020%=      5-min Rain = 0
KLA1 060237Z 19004KT 35/09 A2984 RMK A01 T03510091  RH  020%=      5-min Rain = 0
KLA1 060238Z 21004KT 35/09 A2984 RMK A01 T03520089  RH  020%=      5-min Rain = 0
KLA1 060239Z 20004KT 35/09 A2984 RMK A01 T03530091  RH  020%=      5-min Rain = 0
KLA1 060240Z 19004KT 35/09 A2984 RMK A01 T03520091  RH  020%=      5-min Rain = 0
KLA1 060241Z 19004KT 35/09 A2984 RMK A01 T03520091  RH  020%=      5-min Rain = 0
KLA1 060242Z 20003KT 35/09 A2984 RMK A01 T03510091  RH  020%=      5-min Rain = 0
KLA1 060243Z 20002KT 35/09 A2984 RMK A01 T03510092  RH  021%=      5-min Rain = 0
KLA1 060244Z 19002KT 35/09 A2984 RMK A01 T03490092  RH  021%=      5-min Rain = 0
KLA1 060245Z 19003KT 35/09 A2984 RMK A01 T03490092  RH  021%=      5-min Rain = 0
KLA1 060246Z 19004KT 35/09 A2984 RMK A01 T03490092  RH  021%=      5-min Rain = 0
KLA1 060247Z 22002KT 35/09 A2984 RMK A01 T03480092  RH  021%=      5-min Rain = 0
KLA1 060248Z 22002KT 35/09 A2984 RMK A01 T03480094  RH  021%=      5-min Rain = 0
KLA1 060249Z 22002KT 35/09 A2984 RMK A01 T03480094  RH  021%=      5-min Rain = 0
KLA1 060250Z 21002KT 35/09 A2984 RMK A01 T03470093  RH  021%=      5-min Rain = 0
KLA1 060251Z 19002KT 35/09 A2985 RMK A01 T03470093  RH  021%=      5-min Rain = 0
KLA1 060252Z 22003KT 35/09 A2985 RMK A01 T03470092  RH  021%=      5-min Rain = 0
KLA1 060253Z 23002KT 35/09 A2985 RMK A01 T03480091  RH  021%=      5-min Rain = 0
KLA1 060254Z 25001KT 35/09 A2985 RMK A01 T03480091  RH  021%=      5-min Rain = 0
KLA1 060255Z 26001KT 35/09 A2985 RMK A01 T03480091  RH  021%=      5-min Rain = 0
KLA1 060256Z 27001KT 35/09 A2985 RMK A01 T03480093  RH  021%=      5-min Rain = 0
KLA1 060257Z 29002KT 35/09 A2985 RMK A01 T03480093  RH  021%=      5-min Rain = 0
KLA1 060258Z 28002KT 35/09 A2985 RMK A01 T03470094  RH  021%=      5-min Rain = 0
KLA1 060259Z 30002KT 35/09 A2985 RMK A01 T03470094  RH  021%=      5-min Rain = 0
KLA1 060300Z 31003KT 35/09 A2985 RMK A01 T03470093  RH  021%=      5-min Rain = 0
KLA1 060301Z 31003KT 35/09 A2985 RMK A01 T03460092  RH  021%=      5-min Rain = 0
KLA1 060302Z 31003KT 35/09 A2985 RMK A01 T03460093  RH  021%=      5-min Rain = 0
KLA1 060303Z 32004KT 35/09 A2985 RMK A01 T03460093  RH  021%=      5-min Rain = 0
KLA1 060304Z 34003KT 35/09 A2986 RMK A01 T03460093  RH  021%=      5-min Rain = 0
KLA1 060305Z 36007KT 35/10 A2986 RMK A01 T03460095  RH  022%=      5-min Rain = 0
KLA1 060306Z 01010KT 35/12 A2986 RMK A01 T03450116  RH  025%=      5-min Rain = 0
KLA1 060307Z 02007KT 34/13 A2986 RMK A01 T03410130  RH  028%=      5-min Rain = 0
KLA1 060308Z 00008KT 34/13 A2986 RMK A01 T03380134  RH  029%=      5-min Rain = 0
KLA1 060309Z 00007KT 34/14 A2986 RMK A01 T03350137  RH  030%=      5-min Rain = 0
KLA1 060310Z 00011KT 33/14 A2986 RMK A01 T03340138  RH  031%=      5-min Rain = 0
KLA1 060311Z 00011KT 33/14 A2986 RMK A01 T03320138  RH  031%=      5-min Rain = 0
KLA1 060312Z 35009KT 33/14 A2986 RMK A01 T03320138  RH  031%=      5-min Rain = 0
KLA1 060313Z 35007KT 33/14 A2986 RMK A01 T03310139  RH  031%=      5-min Rain = 0
KLA1 060314Z 36008KT 33/14 A2986 RMK A01 T03310138  RH  031%=      5-min Rain = 0
KLA1 060315Z 35008KT 33/14 A2986 RMK A01 T03310136  RH  031%=      5-min Rain = 0
KLA1 060316Z 35009KT 33/14 A2986 RMK A01 T03310137  RH  031%=      5-min Rain = 0
KLA1 060317Z 36008KT 33/14 A2986 RMK A01 T03310136  RH  031%=      5-min Rain = 0
KLA1 060318Z 36008KT 33/14 A2986 RMK A01 T03320136  RH  030%=      5-min Rain = 0
KLA1 060319Z 36006KT 33/14 A2987 RMK A01 T03320135  RH  030%=      5-min Rain = 0
KLA1 060320Z 00005KT 33/13 A2987 RMK A01 T03330134  RH  030%=      5-min Rain = 0
KLA1 060321Z 01006KT 33/13 A2987 RMK A01 T03330134  RH  030%=      5-min Rain = 0
KLA1 060322Z 01007KT 33/14 A2987 RMK A01 T03330136  RH  030%=      5-min Rain = 0
KLA1 060323Z 01007KT 33/14 A2987 RMK A01 T03320136  RH  030%=      5-min Rain = 0
KLA1 060324Z 01007KT 33/14 A2987 RMK A01 T03320136  RH  031%=      5-min Rain = 0
KLA1 060325Z 02006KT 33/14 A2987 RMK A01 T03320136  RH  031%=      5-min Rain = 0
KLA1 060326Z 01007KT 33/14 A2987 RMK A01 T03310136  RH  031%=      5-min Rain = 0
KLA1 060327Z 01006KT 33/14 A2987 RMK A01 T03310136  RH  031%=      5-min Rain = 0
KLA1 060328Z 01006KT 33/14 A2987 RMK A01 T03310136  RH  031%=      5-min Rain = 0
KLA1 060329Z 02006KT 33/14 A2987 RMK A01 T03310135  RH  031%=      5-min Rain = 0
KLA1 060330Z 02006KT 33/14 A2987 RMK A01 T03300136  RH  031%=      5-min Rain = 0
KLA1 060331Z 01006KT 33/14 A2987 RMK A01 T03300137  RH  031%=      5-min Rain = 0
KLA1 060332Z 01006KT 33/14 A2987 RMK A01 T03300137  RH  031%=      5-min Rain = 0
KLA1 060333Z 01006KT 33/14 A2987 RMK A01 T03290137  RH  031%=      5-min Rain = 0
KLA1 060334Z 01007KT 33/14 A2987 RMK A01 T03290135  RH  031%=      5-min Rain = 0
KLA1 060335Z 01006KT 33/13 A2987 RMK A01 T03290134  RH  031%=      5-min Rain = 0
KLA1 060336Z 01006KT 33/13 A2987 RMK A01 T03300134  RH  030%=      5-min Rain = 0
KLA1 060337Z 01006KT 33/13 A2987 RMK A01 T03300133  RH  030%=      5-min Rain = 0
KLA1 060338Z 01006KT 33/13 A2987 RMK A01 T03300134  RH  030%=      5-min Rain = 0
KLA1 060339Z 01006KT 33/13 A2987 RMK A01 T03300133  RH  030%=      5-min Rain = 0
KLA1 060340Z 01006KT 33/13 A2987 RMK A01 T03300133  RH  030%=      5-min Rain = 0
KLA1 060341Z 01006KT 33/13 A2987 RMK A01 T03300133  RH  030%=      5-min Rain = 0
KLA1 060342Z 01006KT 33/13 A2987 RMK A01 T03300132  RH  030%=      5-min Rain = 0
KLA1 060343Z 01005KT 33/13 A2987 RMK A01 T03310132  RH  030%=      5-min Rain = 0
KLA1 060344Z 01005KT 33/13 A2987 RMK A01 T03310132  RH  030%=      5-min Rain = 0
KLA1 060345Z 01006KT 33/13 A2987 RMK A01 T03310133  RH  030%=      5-min Rain = 0
KLA1 060346Z 01006KT 33/13 A2987 RMK A01 T03310133  RH  030%=      5-min Rain = 0
KLA1 060347Z 01004KT 33/13 A2987 RMK A01 T03310133  RH  030%=      5-min Rain = 0
KLA1 060348Z 01004KT 33/13 A2987 RMK A01 T03310134  RH  030%=      5-min Rain = 0
KLA1 060349Z 00004KT 33/13 A2987 RMK A01 T03300134  RH  030%=      5-min Rain = 0
KLA1 060350Z 35004KT 33/13 A2987 RMK A01 T03300134  RH  031%=      5-min Rain = 0
KLA1 060351Z 36003KT 33/13 A2987 RMK A01 T03290134  RH  031%=      5-min Rain = 0
KLA1 060352Z 35003KT 33/13 A2987 RMK A01 T03290134  RH  031%=      5-min Rain = 0
KLA1 060353Z 36003KT 33/13 A2987 RMK A01 T03280133  RH  031%=      5-min Rain = 0
KLA1 060354Z 34003KT 33/13 A2987 RMK A01 T03280133  RH  031%=      5-min Rain = 0
KLA1 060355Z 27003KT 33/13 A2987 RMK A01 T03280131  RH  030%=      5-min Rain = 0
KLA1 060356Z 27002KT 33/13 A2988 RMK A01 T03280131  RH  030%=      5-min Rain = 0
KLA1 060357Z 30001KT 33/13 A2988 RMK A01 T03280129  RH  030%=      5-min Rain = 0
KLA1 060358Z 27001KT 33/13 A2988 RMK A01 T03290129  RH  030%=      5-min Rain = 0
KLA1 060359Z 24001KT 33/13 A2988 RMK A01 T03290129  RH  030%=      5-min Rain = 0
KLA1 060400Z 25001KT 33/13 A2988 RMK A01 T03300130  RH  030%=      5-min Rain = 0
KLA1 060401Z 29001KT 33/13 A2988 RMK A01 T03300130  RH  030%=      5-min Rain = 0
KLA1 060402Z 30001KT 33/13 A2988 RMK A01 T03290132  RH  030%=      5-min Rain = 0
KLA1 060403Z 25000KT 33/13 A2988 RMK A01 T03280131  RH  030%=      5-min Rain = 0
KLA1 060404Z 00000KT 33/13 A2988 RMK A01 T03270131  RH  030%=      5-min Rain = 0
KLA1 060405Z 32000KT 33/13 A2987 RMK A01 T03270131  RH  030%=      5-min Rain = 0
KLA1 060406Z 32000KT 33/13 A2988 RMK A01 T03270130  RH  030%=      5-min Rain = 0
KLA1 060407Z 00000KT 33/13 A2988 RMK A01 T03270131  RH  030%=      5-min Rain = 0
KLA1 060408Z 00000KT 33/13 A2988 RMK A01 T03260131  RH  031%=      5-min Rain = 0
KLA1 060409Z 27000KT 33/13 A2988 RMK A01 T03260131  RH  031%=      5-min Rain = 0
KLA1 060410Z 26002KT 33/13 A2988 RMK A01 T03260130  RH  031%=      5-min Rain = 0
KLA1 060411Z 27003KT 33/13 A2988 RMK A01 T03250133  RH  031%=      5-min Rain = 0
KLA1 060412Z 28004KT 32/13 A2988 RMK A01 T03240134  RH  032%=      5-min Rain = 0
KLA1 060413Z 29003KT 32/14 A2988 RMK A01 T03230136  RH  032%=      5-min Rain = 0
KLA1 060414Z 29003KT 32/14 A2988 RMK A01 T03220138  RH  033%=      5-min Rain = 0
KLA1 060415Z 31002KT 32/14 A2988 RMK A01 T03200138  RH  033%=      5-min Rain = 0
KLA1 060416Z 31003KT 32/14 A2988 RMK A01 T03190139  RH  034%=      5-min Rain = 0
KLA1 060417Z 31003KT 32/14 A2988 RMK A01 T03180140  RH  034%=      5-min Rain = 0
KLA1 060418Z 31004KT 32/14 A2988 RMK A01 T03180140  RH  034%=      5-min Rain = 0
KLA1 060419Z 31004KT 32/14 A2988 RMK A01 T03170141  RH  034%=      5-min Rain = 0
KLA1 060420Z 31005KT 32/14 A2988 RMK A01 T03170140  RH  034%=      5-min Rain = 0
KLA1 060421Z 31005KT 32/14 A2988 RMK A01 T03160140  RH  034%=      5-min Rain = 0
KLA1 060422Z 31005KT 32/14 A2988 RMK A01 T03170140  RH  034%=      5-min Rain = 0
KLA1 060423Z 32005KT 32/14 A2988 RMK A01 T03170141  RH  034%=      5-min Rain = 0
KLA1 060424Z 32004KT 32/14 A2988 RMK A01 T03160141  RH  034%=      5-min Rain = 0
KLA1 060425Z 31005KT 32/14 A2989 RMK A01 T03160140  RH  034%=      5-min Rain = 0
KLA1 060426Z 32005KT 32/14 A2989 RMK A01 T03160140  RH  034%=      5-min Rain = 0
KLA1 060427Z 32005KT 32/14 A2989 RMK A01 T03160138  RH  034%=      5-min Rain = 0
KLA1 060428Z 31005KT 32/14 A2989 RMK A01 T03170138  RH  034%=      5-min Rain = 0
KLA1 060429Z 31005KT 32/14 A2989 RMK A01 T03180139  RH  034%=      5-min Rain = 0
KLA1 060430Z 30005KT 32/14 A2989 RMK A01 T03170140  RH  034%=      5-min Rain = 0
KLA1 060431Z 30005KT 32/14 A2989 RMK A01 T03170141  RH  034%=      5-min Rain = 0
KLA1 060432Z 30006KT 32/14 A2989 RMK A01 T03160142  RH  035%=      5-min Rain = 0
KLA1 060433Z 30006KT 32/14 A2989 RMK A01 T03150142  RH  035%=      5-min Rain = 0
KLA1 060434Z 29006KT 32/14 A299 RMK A01 T03150143  RH  035%=      5-min Rain = 0
KLA1 060435Z 29008KT 31/14 A299 RMK A01 T03140143  RH  035%=      5-min Rain = 0
KLA1 060436Z 27007KT 31/14 A299 RMK A01 T03140143  RH  035%=      5-min Rain = 0
KLA1 060437Z 27011KT 31/14 A299 RMK A01 T03140140  RH  035%=      5-min Rain = 0
KLA1 060438Z 29007KT 32/14 A299 RMK A01 T03150137  RH  034%=      5-min Rain = 0
KLA1 060439Z 28008G14KT 32/14 A299 RMK A01 T03170139  RH  034%=      5-min Rain = 0
KLA1 060440Z 28012KT 32/14 A299 RMK A01 T03180138  RH  034%=      5-min Rain = 0
KLA1 060441Z 28011KT 32/14 A299 RMK A01 T03200140  RH  034%=      5-min Rain = 0
KLA1 060442Z 29008KT 32/14 A299 RMK A01 T03210140  RH  033%=      5-min Rain = 0
KLA1 060443Z 28007KT 32/14 A299 RMK A01 T03220140  RH  033%=      5-min Rain = 0
KLA1 060444Z 29005KT 32/14 A299 RMK A01 T03220140  RH  033%=      5-min Rain = 0
KLA1 060445Z 32005KT 32/14 A299 RMK A01 T03220141  RH  033%=      5-min Rain = 0
KLA1 060446Z 33005KT 32/14 A299 RMK A01 T03220140  RH  033%=      5-min Rain = 0
KLA1 060447Z 31005KT 32/14 A299 RMK A01 T03210140  RH  033%=      5-min Rain = 0
KLA1 060448Z 30007KT 32/14 A2991 RMK A01 T03210141  RH  034%=      5-min Rain = 0
KLA1 060449Z 30006KT 32/14 A2991 RMK A01 T03210142  RH  034%=      5-min Rain = 0
KLA1 060450Z 29005KT 32/14 A2991 RMK A01 T03200142  RH  034%=      5-min Rain = 0
KLA1 060451Z 29005KT 32/14 A2991 RMK A01 T03200143  RH  034%=      5-min Rain = 0
KLA1 060452Z 30004KT 32/14 A2991 RMK A01 T03200143  RH  034%=      5-min Rain = 0
KLA1 060453Z 29005KT 32/14 A2991 RMK A01 T03200143  RH  034%=      5-min Rain = 0
KLA1 060454Z 29004KT 32/14 A2991 RMK A01 T03200143  RH  034%=      5-min Rain = 0
KLA1 060455Z 28004KT 32/14 A2991 RMK A01 T03200143  RH  034%=      5-min Rain = 0
KLA1 060456Z 27003KT 32/14 A2991 RMK A01 T03200143  RH  034%=      5-min Rain = 0
KLA1 060457Z 27004KT 32/14 A2991 RMK A01 T03190143  RH  035%=      5-min Rain = 0
KLA1 060458Z 26005KT 32/14 A2991 RMK A01 T03180143  RH  035%=      5-min Rain = 0
KLA1 060459Z 26004KT 32/14 A2991 RMK A01 T03170143  RH  035%=      5-min Rain = 0

Page generated in 0.0717 seconds.